<?xml version="1.0" encoding="UTF-8" standalone="no" ?>
<gpx xmlns="http://www.topografix.com/GPX/1/1" xmlns:xsi="http://www.w3.org/2001/XMLSchema-instance" xsi:schemaLocation="http://www.topografix.com/GPX/1/1 http://www.topografix.com/GPX/1/1/gpx.xsd" version="1.1" creator="VisuGPX - https://www.visugpx.com">
  <metadata>
    <name>2-2 AM Les Vignes à Les 12 </name>
  </metadata>
  <trk>
    <name><![CDATA[10784512-2-2 Les Vignes à Le Rozier par 12 et Jonte]]></name>
    <trkseg>
      <trkpt lat="44.27767" lon="3.22741">
        <ele>421</ele>
        <time>2020-01-04T18:38:58Z</time>
      </trkpt>
      <trkpt lat="44.2772" lon="3.22844">
        <ele>420</ele>
        <time>2020-01-04T18:39:18Z</time>
      </trkpt>
      <trkpt lat="44.27765" lon="3.22902">
        <ele>422</ele>
        <time>2020-01-04T18:39:33Z</time>
      </trkpt>
      <trkpt lat="44.27806" lon="3.2298">
        <ele>427</ele>
        <time>2020-01-04T18:39:49Z</time>
      </trkpt>
      <trkpt lat="44.27793" lon="3.22988">
        <ele>431</ele>
        <time>2020-01-04T18:39:52Z</time>
      </trkpt>
      <trkpt lat="44.27787" lon="3.23009">
        <ele>437</ele>
        <time>2020-01-04T18:39:56Z</time>
      </trkpt>
      <trkpt lat="44.27774" lon="3.23001">
        <ele>439</ele>
        <time>2020-01-04T18:39:59Z</time>
      </trkpt>
      <trkpt lat="44.27752" lon="3.22973">
        <ele>439</ele>
        <time>2020-01-04T18:40:06Z</time>
      </trkpt>
      <trkpt lat="44.27744" lon="3.2295">
        <ele>435</ele>
        <time>2020-01-04T18:40:11Z</time>
      </trkpt>
      <trkpt lat="44.27739" lon="3.22943">
        <ele>434</ele>
        <time>2020-01-04T18:40:12Z</time>
      </trkpt>
      <trkpt lat="44.27724" lon="3.22932">
        <ele>434</ele>
        <time>2020-01-04T18:40:16Z</time>
      </trkpt>
      <trkpt lat="44.27716" lon="3.22931">
        <ele>436</ele>
        <time>2020-01-04T18:40:18Z</time>
      </trkpt>
      <trkpt lat="44.27707" lon="3.22933">
        <ele>438</ele>
        <time>2020-01-04T18:40:20Z</time>
      </trkpt>
      <trkpt lat="44.27653" lon="3.22965">
        <ele>457</ele>
        <time>2020-01-04T18:40:34Z</time>
      </trkpt>
      <trkpt lat="44.27648" lon="3.22965">
        <ele>457</ele>
        <time>2020-01-04T18:40:35Z</time>
      </trkpt>
      <trkpt lat="44.27639" lon="3.22959">
        <ele>456</ele>
        <time>2020-01-04T18:40:37Z</time>
      </trkpt>
      <trkpt lat="44.27631" lon="3.22968">
        <ele>459</ele>
        <time>2020-01-04T18:40:40Z</time>
      </trkpt>
      <trkpt lat="44.27624" lon="3.2297">
        <ele>461</ele>
        <time>2020-01-04T18:40:41Z</time>
      </trkpt>
      <trkpt lat="44.27593" lon="3.22962">
        <ele>462</ele>
        <time>2020-01-04T18:40:49Z</time>
      </trkpt>
      <trkpt lat="44.27559" lon="3.22973">
        <ele>467</ele>
        <time>2020-01-04T18:40:57Z</time>
      </trkpt>
      <trkpt lat="44.2754" lon="3.22976">
        <ele>469</ele>
        <time>2020-01-04T18:41:01Z</time>
      </trkpt>
      <trkpt lat="44.2753" lon="3.22981">
        <ele>470</ele>
        <time>2020-01-04T18:41:04Z</time>
      </trkpt>
      <trkpt lat="44.27519" lon="3.22992">
        <ele>474</ele>
        <time>2020-01-04T18:41:07Z</time>
      </trkpt>
      <trkpt lat="44.27511" lon="3.22995">
        <ele>475</ele>
        <time>2020-01-04T18:41:09Z</time>
      </trkpt>
      <trkpt lat="44.27495" lon="3.23007">
        <ele>480</ele>
        <time>2020-01-04T18:41:13Z</time>
      </trkpt>
      <trkpt lat="44.27471" lon="3.22991">
        <ele>479</ele>
        <time>2020-01-04T18:41:19Z</time>
      </trkpt>
      <trkpt lat="44.27413" lon="3.23031">
        <ele>499</ele>
        <time>2020-01-04T18:41:35Z</time>
      </trkpt>
      <trkpt lat="44.27442" lon="3.23058">
        <ele>504</ele>
        <time>2020-01-04T18:41:43Z</time>
      </trkpt>
      <trkpt lat="44.27453" lon="3.23073">
        <ele>507</ele>
        <time>2020-01-04T18:41:46Z</time>
      </trkpt>
      <trkpt lat="44.27474" lon="3.23117">
        <ele>518</ele>
        <time>2020-01-04T18:41:55Z</time>
      </trkpt>
      <trkpt lat="44.2748" lon="3.23125">
        <ele>520</ele>
        <time>2020-01-04T18:41:57Z</time>
      </trkpt>
      <trkpt lat="44.27492" lon="3.23129">
        <ele>520</ele>
        <time>2020-01-04T18:42:00Z</time>
      </trkpt>
      <trkpt lat="44.2753" lon="3.23121">
        <ele>513</ele>
        <time>2020-01-04T18:42:09Z</time>
      </trkpt>
      <trkpt lat="44.2754" lon="3.23121">
        <ele>512</ele>
        <time>2020-01-04T18:42:11Z</time>
      </trkpt>
      <trkpt lat="44.27554" lon="3.23126">
        <ele>512</ele>
        <time>2020-01-04T18:42:15Z</time>
      </trkpt>
      <trkpt lat="44.27574" lon="3.23162">
        <ele>522</ele>
        <time>2020-01-04T18:42:22Z</time>
      </trkpt>
      <trkpt lat="44.27594" lon="3.2321">
        <ele>532</ele>
        <time>2020-01-04T18:42:32Z</time>
      </trkpt>
      <trkpt lat="44.27602" lon="3.23219">
        <ele>532</ele>
        <time>2020-01-04T18:42:34Z</time>
      </trkpt>
      <trkpt lat="44.27608" lon="3.23221">
        <ele>531</ele>
        <time>2020-01-04T18:42:35Z</time>
      </trkpt>
      <trkpt lat="44.27627" lon="3.23219">
        <ele>525</ele>
        <time>2020-01-04T18:42:40Z</time>
      </trkpt>
      <trkpt lat="44.27635" lon="3.2322">
        <ele>523</ele>
        <time>2020-01-04T18:42:42Z</time>
      </trkpt>
      <trkpt lat="44.27642" lon="3.23225">
        <ele>523</ele>
        <time>2020-01-04T18:42:44Z</time>
      </trkpt>
      <trkpt lat="44.27647" lon="3.23235">
        <ele>524</ele>
        <time>2020-01-04T18:42:46Z</time>
      </trkpt>
      <trkpt lat="44.27657" lon="3.23288">
        <ele>534</ele>
        <time>2020-01-04T18:42:55Z</time>
      </trkpt>
      <trkpt lat="44.2768" lon="3.23378">
        <ele>546</ele>
        <time>2020-01-04T18:43:11Z</time>
      </trkpt>
      <trkpt lat="44.27688" lon="3.23424">
        <ele>552</ele>
        <time>2020-01-04T18:43:19Z</time>
      </trkpt>
      <trkpt lat="44.27687" lon="3.23428">
        <ele>553</ele>
        <time>2020-01-04T18:43:19Z</time>
      </trkpt>
      <trkpt lat="44.27683" lon="3.23429">
        <ele>554</ele>
        <time>2020-01-04T18:43:20Z</time>
      </trkpt>
      <trkpt lat="44.2768" lon="3.23424">
        <ele>554</ele>
        <time>2020-01-04T18:43:21Z</time>
      </trkpt>
      <trkpt lat="44.27667" lon="3.23377">
        <ele>549</ele>
        <time>2020-01-04T18:43:30Z</time>
      </trkpt>
      <trkpt lat="44.27633" lon="3.23312">
        <ele>549</ele>
        <time>2020-01-04T18:43:43Z</time>
      </trkpt>
      <trkpt lat="44.27625" lon="3.23302">
        <ele>549</ele>
        <time>2020-01-04T18:43:46Z</time>
      </trkpt>
      <trkpt lat="44.27618" lon="3.23296">
        <ele>550</ele>
        <time>2020-01-04T18:43:48Z</time>
      </trkpt>
      <trkpt lat="44.2761" lon="3.23296">
        <ele>553</ele>
        <time>2020-01-04T18:43:50Z</time>
      </trkpt>
      <trkpt lat="44.27588" lon="3.23303">
        <ele>563</ele>
        <time>2020-01-04T18:43:55Z</time>
      </trkpt>
      <trkpt lat="44.27576" lon="3.23301">
        <ele>566</ele>
        <time>2020-01-04T18:43:58Z</time>
      </trkpt>
      <trkpt lat="44.27566" lon="3.23295">
        <ele>567</ele>
        <time>2020-01-04T18:44:00Z</time>
      </trkpt>
      <trkpt lat="44.27557" lon="3.23285">
        <ele>566</ele>
        <time>2020-01-04T18:44:03Z</time>
      </trkpt>
      <trkpt lat="44.27533" lon="3.2324">
        <ele>555</ele>
        <time>2020-01-04T18:44:12Z</time>
      </trkpt>
      <trkpt lat="44.2752" lon="3.23236">
        <ele>556</ele>
        <time>2020-01-04T18:44:15Z</time>
      </trkpt>
      <trkpt lat="44.27455" lon="3.2326">
        <ele>579</ele>
        <time>2020-01-04T18:44:31Z</time>
      </trkpt>
      <trkpt lat="44.27446" lon="3.23261">
        <ele>581</ele>
        <time>2020-01-04T18:44:33Z</time>
      </trkpt>
      <trkpt lat="44.27437" lon="3.23258">
        <ele>581</ele>
        <time>2020-01-04T18:44:35Z</time>
      </trkpt>
      <trkpt lat="44.27426" lon="3.2325">
        <ele>579</ele>
        <time>2020-01-04T18:44:38Z</time>
      </trkpt>
      <trkpt lat="44.27413" lon="3.23235">
        <ele>576</ele>
        <time>2020-01-04T18:44:42Z</time>
      </trkpt>
      <trkpt lat="44.274" lon="3.23228">
        <ele>576</ele>
        <time>2020-01-04T18:44:45Z</time>
      </trkpt>
      <trkpt lat="44.27334" lon="3.23205">
        <ele>583</ele>
        <time>2020-01-04T18:45:01Z</time>
      </trkpt>
      <trkpt lat="44.27297" lon="3.23185">
        <ele>584</ele>
        <time>2020-01-04T18:45:11Z</time>
      </trkpt>
      <trkpt lat="44.2726" lon="3.23171">
        <ele>587</ele>
        <time>2020-01-04T18:45:20Z</time>
      </trkpt>
      <trkpt lat="44.27236" lon="3.23158">
        <ele>587</ele>
        <time>2020-01-04T18:45:26Z</time>
      </trkpt>
      <trkpt lat="44.27165" lon="3.23156">
        <ele>598</ele>
        <time>2020-01-04T18:45:42Z</time>
      </trkpt>
      <trkpt lat="44.2712" lon="3.23161">
        <ele>597</ele>
        <time>2020-01-04T18:45:53Z</time>
      </trkpt>
      <trkpt lat="44.2711" lon="3.23164">
        <ele>598</ele>
        <time>2020-01-04T18:45:55Z</time>
      </trkpt>
      <trkpt lat="44.27068" lon="3.23204">
        <ele>611</ele>
        <time>2020-01-04T18:46:07Z</time>
      </trkpt>
      <trkpt lat="44.27012" lon="3.23245">
        <ele>621</ele>
        <time>2020-01-04T18:46:22Z</time>
      </trkpt>
      <trkpt lat="44.26992" lon="3.23248">
        <ele>623</ele>
        <time>2020-01-04T18:46:26Z</time>
      </trkpt>
      <trkpt lat="44.26979" lon="3.23244">
        <ele>624</ele>
        <time>2020-01-04T18:46:29Z</time>
      </trkpt>
      <trkpt lat="44.26879" lon="3.23186">
        <ele>609</ele>
        <time>2020-01-04T18:46:55Z</time>
      </trkpt>
      <trkpt lat="44.26872" lon="3.23184">
        <ele>608</ele>
        <time>2020-01-04T18:46:56Z</time>
      </trkpt>
      <trkpt lat="44.26865" lon="3.23186">
        <ele>610</ele>
        <time>2020-01-04T18:46:58Z</time>
      </trkpt>
      <trkpt lat="44.26859" lon="3.23192">
        <ele>612</ele>
        <time>2020-01-04T18:47:00Z</time>
      </trkpt>
      <trkpt lat="44.26843" lon="3.23221">
        <ele>625</ele>
        <time>2020-01-04T18:47:06Z</time>
      </trkpt>
      <trkpt lat="44.26834" lon="3.23245">
        <ele>634</ele>
        <time>2020-01-04T18:47:10Z</time>
      </trkpt>
      <trkpt lat="44.26826" lon="3.23259">
        <ele>640</ele>
        <time>2020-01-04T18:47:13Z</time>
      </trkpt>
      <trkpt lat="44.26815" lon="3.23269">
        <ele>644</ele>
        <time>2020-01-04T18:47:17Z</time>
      </trkpt>
      <trkpt lat="44.26806" lon="3.2327">
        <ele>645</ele>
        <time>2020-01-04T18:47:19Z</time>
      </trkpt>
      <trkpt lat="44.26769" lon="3.23258">
        <ele>640</ele>
        <time>2020-01-04T18:47:28Z</time>
      </trkpt>
      <trkpt lat="44.26745" lon="3.23255">
        <ele>639</ele>
        <time>2020-01-04T18:47:33Z</time>
      </trkpt>
      <trkpt lat="44.26681" lon="3.23253">
        <ele>638</ele>
        <time>2020-01-04T18:47:48Z</time>
      </trkpt>
      <trkpt lat="44.26668" lon="3.23256">
        <ele>639</ele>
        <time>2020-01-04T18:47:51Z</time>
      </trkpt>
      <trkpt lat="44.26652" lon="3.23265">
        <ele>641</ele>
        <time>2020-01-04T18:47:55Z</time>
      </trkpt>
      <trkpt lat="44.26637" lon="3.23279">
        <ele>646</ele>
        <time>2020-01-04T18:47:59Z</time>
      </trkpt>
      <trkpt lat="44.26604" lon="3.23316">
        <ele>658</ele>
        <time>2020-01-04T18:48:09Z</time>
      </trkpt>
      <trkpt lat="44.26595" lon="3.23323">
        <ele>660</ele>
        <time>2020-01-04T18:48:12Z</time>
      </trkpt>
      <trkpt lat="44.26586" lon="3.23325">
        <ele>659</ele>
        <time>2020-01-04T18:48:14Z</time>
      </trkpt>
      <trkpt lat="44.26571" lon="3.23324">
        <ele>659</ele>
        <time>2020-01-04T18:48:17Z</time>
      </trkpt>
      <trkpt lat="44.26496" lon="3.23305">
        <ele>656</ele>
        <time>2020-01-04T18:48:35Z</time>
      </trkpt>
      <trkpt lat="44.26472" lon="3.23301">
        <ele>654</ele>
        <time>2020-01-04T18:48:41Z</time>
      </trkpt>
      <trkpt lat="44.26435" lon="3.23304">
        <ele>656</ele>
        <time>2020-01-04T18:48:49Z</time>
      </trkpt>
      <trkpt lat="44.26408" lon="3.23313">
        <ele>657</ele>
        <time>2020-01-04T18:48:56Z</time>
      </trkpt>
      <trkpt lat="44.26396" lon="3.23321">
        <ele>656</ele>
        <time>2020-01-04T18:48:59Z</time>
      </trkpt>
      <trkpt lat="44.26392" lon="3.2333">
        <ele>659</ele>
        <time>2020-01-04T18:49:01Z</time>
      </trkpt>
      <trkpt lat="44.26376" lon="3.23426">
        <ele>694</ele>
        <time>2020-01-04T18:49:17Z</time>
      </trkpt>
      <trkpt lat="44.26372" lon="3.23436">
        <ele>697</ele>
        <time>2020-01-04T18:49:19Z</time>
      </trkpt>
      <trkpt lat="44.26367" lon="3.23442">
        <ele>698</ele>
        <time>2020-01-04T18:49:21Z</time>
      </trkpt>
      <trkpt lat="44.26357" lon="3.23446">
        <ele>696</ele>
        <time>2020-01-04T18:49:23Z</time>
      </trkpt>
      <trkpt lat="44.26341" lon="3.23448">
        <ele>691</ele>
        <time>2020-01-04T18:49:27Z</time>
      </trkpt>
      <trkpt lat="44.26305" lon="3.23446">
        <ele>678</ele>
        <time>2020-01-04T18:49:35Z</time>
      </trkpt>
      <trkpt lat="44.26296" lon="3.23451">
        <ele>677</ele>
        <time>2020-01-04T18:49:38Z</time>
      </trkpt>
      <trkpt lat="44.26281" lon="3.2348">
        <ele>685</ele>
        <time>2020-01-04T18:49:44Z</time>
      </trkpt>
      <trkpt lat="44.26249" lon="3.23529">
        <ele>700</ele>
        <time>2020-01-04T18:49:55Z</time>
      </trkpt>
      <trkpt lat="44.2622" lon="3.23554">
        <ele>709</ele>
        <time>2020-01-04T18:50:03Z</time>
      </trkpt>
      <trkpt lat="44.26211" lon="3.23558">
        <ele>710</ele>
        <time>2020-01-04T18:50:05Z</time>
      </trkpt>
      <trkpt lat="44.26192" lon="3.23556">
        <ele>706</ele>
        <time>2020-01-04T18:50:09Z</time>
      </trkpt>
      <trkpt lat="44.2616" lon="3.23565">
        <ele>708</ele>
        <time>2020-01-04T18:50:17Z</time>
      </trkpt>
      <trkpt lat="44.26116" lon="3.23573">
        <ele>719</ele>
        <time>2020-01-04T18:50:27Z</time>
      </trkpt>
      <trkpt lat="44.26106" lon="3.23572">
        <ele>720</ele>
        <time>2020-01-04T18:50:30Z</time>
      </trkpt>
      <trkpt lat="44.26098" lon="3.23568">
        <ele>719</ele>
        <time>2020-01-04T18:50:32Z</time>
      </trkpt>
      <trkpt lat="44.26063" lon="3.2354">
        <ele>696</ele>
        <time>2020-01-04T18:50:41Z</time>
      </trkpt>
      <trkpt lat="44.26056" lon="3.23539">
        <ele>694</ele>
        <time>2020-01-04T18:50:43Z</time>
      </trkpt>
      <trkpt lat="44.26054" lon="3.23543">
        <ele>695</ele>
        <time>2020-01-04T18:50:43Z</time>
      </trkpt>
      <trkpt lat="44.26058" lon="3.23548">
        <ele>699</ele>
        <time>2020-01-04T18:50:45Z</time>
      </trkpt>
      <trkpt lat="44.26078" lon="3.23563">
        <ele>715</ele>
        <time>2020-01-04T18:50:50Z</time>
      </trkpt>
      <trkpt lat="44.2609" lon="3.23581">
        <ele>728</ele>
        <time>2020-01-04T18:50:54Z</time>
      </trkpt>
      <trkpt lat="44.261" lon="3.2359">
        <ele>731</ele>
        <time>2020-01-04T18:50:57Z</time>
      </trkpt>
      <trkpt lat="44.26111" lon="3.23595">
        <ele>731</ele>
        <time>2020-01-04T18:51:00Z</time>
      </trkpt>
      <trkpt lat="44.2618" lon="3.23602">
        <ele>732</ele>
        <time>2020-01-04T18:51:16Z</time>
      </trkpt>
      <trkpt lat="44.26191" lon="3.23604">
        <ele>735</ele>
        <time>2020-01-04T18:51:18Z</time>
      </trkpt>
      <trkpt lat="44.26214" lon="3.23614">
        <ele>746</ele>
        <time>2020-01-04T18:51:24Z</time>
      </trkpt>
      <trkpt lat="44.26221" lon="3.23613">
        <ele>746</ele>
        <time>2020-01-04T18:51:26Z</time>
      </trkpt>
      <trkpt lat="44.26255" lon="3.23598">
        <ele>744</ele>
        <time>2020-01-04T18:51:34Z</time>
      </trkpt>
      <trkpt lat="44.26273" lon="3.23587">
        <ele>744</ele>
        <time>2020-01-04T18:51:39Z</time>
      </trkpt>
      <trkpt lat="44.26316" lon="3.23551">
        <ele>741</ele>
        <time>2020-01-04T18:51:50Z</time>
      </trkpt>
      <trkpt lat="44.2633" lon="3.23544">
        <ele>742</ele>
        <time>2020-01-04T18:51:54Z</time>
      </trkpt>
      <trkpt lat="44.26353" lon="3.2354">
        <ele>748</ele>
        <time>2020-01-04T18:51:59Z</time>
      </trkpt>
      <trkpt lat="44.26367" lon="3.23543">
        <ele>756</ele>
        <time>2020-01-04T18:52:02Z</time>
      </trkpt>
      <trkpt lat="44.26388" lon="3.23553">
        <ele>772</ele>
        <time>2020-01-04T18:52:08Z</time>
      </trkpt>
      <trkpt lat="44.26394" lon="3.23553">
        <ele>775</ele>
        <time>2020-01-04T18:52:09Z</time>
      </trkpt>
      <trkpt lat="44.26409" lon="3.23543">
        <ele>773</ele>
        <time>2020-01-04T18:52:13Z</time>
      </trkpt>
      <trkpt lat="44.26422" lon="3.23538">
        <ele>774</ele>
        <time>2020-01-04T18:52:16Z</time>
      </trkpt>
      <trkpt lat="44.26432" lon="3.2353">
        <ele>771</ele>
        <time>2020-01-04T18:52:19Z</time>
      </trkpt>
      <trkpt lat="44.26437" lon="3.23522">
        <ele>767</ele>
        <time>2020-01-04T18:52:21Z</time>
      </trkpt>
      <trkpt lat="44.26447" lon="3.23489">
        <ele>749</ele>
        <time>2020-01-04T18:52:27Z</time>
      </trkpt>
      <trkpt lat="44.26453" lon="3.23478">
        <ele>745</ele>
        <time>2020-01-04T18:52:29Z</time>
      </trkpt>
      <trkpt lat="44.26458" lon="3.23472">
        <ele>743</ele>
        <time>2020-01-04T18:52:30Z</time>
      </trkpt>
      <trkpt lat="44.26465" lon="3.23469">
        <ele>744</ele>
        <time>2020-01-04T18:52:32Z</time>
      </trkpt>
      <trkpt lat="44.26553" lon="3.23497">
        <ele>791</ele>
        <time>2020-01-04T18:52:53Z</time>
      </trkpt>
      <trkpt lat="44.26591" lon="3.23518">
        <ele>812</ele>
        <time>2020-01-04T18:53:03Z</time>
      </trkpt>
      <trkpt lat="44.26601" lon="3.23519">
        <ele>811</ele>
        <time>2020-01-04T18:53:05Z</time>
      </trkpt>
      <trkpt lat="44.2664" lon="3.23508">
        <ele>800</ele>
        <time>2020-01-04T18:53:14Z</time>
      </trkpt>
      <trkpt lat="44.26681" lon="3.23491">
        <ele>784</ele>
        <time>2020-01-04T18:53:24Z</time>
      </trkpt>
      <trkpt lat="44.26689" lon="3.23491">
        <ele>784</ele>
        <time>2020-01-04T18:53:26Z</time>
      </trkpt>
      <trkpt lat="44.26732" lon="3.23503">
        <ele>795</ele>
        <time>2020-01-04T18:53:36Z</time>
      </trkpt>
      <trkpt lat="44.26781" lon="3.23506">
        <ele>785</ele>
        <time>2020-01-04T18:53:48Z</time>
      </trkpt>
      <trkpt lat="44.26789" lon="3.23512">
        <ele>785</ele>
        <time>2020-01-04T18:53:50Z</time>
      </trkpt>
      <trkpt lat="44.26796" lon="3.23522">
        <ele>788</ele>
        <time>2020-01-04T18:53:52Z</time>
      </trkpt>
      <trkpt lat="44.26808" lon="3.23547">
        <ele>796</ele>
        <time>2020-01-04T18:53:57Z</time>
      </trkpt>
      <trkpt lat="44.26819" lon="3.23563">
        <ele>799</ele>
        <time>2020-01-04T18:54:01Z</time>
      </trkpt>
      <trkpt lat="44.26834" lon="3.23576">
        <ele>798</ele>
        <time>2020-01-04T18:54:05Z</time>
      </trkpt>
      <trkpt lat="44.26849" lon="3.23585">
        <ele>803</ele>
        <time>2020-01-04T18:54:09Z</time>
      </trkpt>
      <trkpt lat="44.26866" lon="3.23587">
        <ele>804</ele>
        <time>2020-01-04T18:54:13Z</time>
      </trkpt>
      <trkpt lat="44.26882" lon="3.23585">
        <ele>803</ele>
        <time>2020-01-04T18:54:17Z</time>
      </trkpt>
      <trkpt lat="44.26917" lon="3.23559">
        <ele>792</ele>
        <time>2020-01-04T18:54:26Z</time>
      </trkpt>
      <trkpt lat="44.26924" lon="3.23555">
        <ele>789</ele>
        <time>2020-01-04T18:54:28Z</time>
      </trkpt>
      <trkpt lat="44.2693" lon="3.23555">
        <ele>789</ele>
        <time>2020-01-04T18:54:29Z</time>
      </trkpt>
      <trkpt lat="44.26962" lon="3.23583">
        <ele>802</ele>
        <time>2020-01-04T18:54:38Z</time>
      </trkpt>
      <trkpt lat="44.26977" lon="3.23589">
        <ele>806</ele>
        <time>2020-01-04T18:54:42Z</time>
      </trkpt>
      <trkpt lat="44.2699" lon="3.23591">
        <ele>807</ele>
        <time>2020-01-04T18:54:45Z</time>
      </trkpt>
      <trkpt lat="44.27018" lon="3.23589">
        <ele>808</ele>
        <time>2020-01-04T18:54:51Z</time>
      </trkpt>
      <trkpt lat="44.27054" lon="3.236">
        <ele>818</ele>
        <time>2020-01-04T18:55:00Z</time>
      </trkpt>
      <trkpt lat="44.2709" lon="3.23603">
        <ele>823</ele>
        <time>2020-01-04T18:55:08Z</time>
      </trkpt>
      <trkpt lat="44.27114" lon="3.23592">
        <ele>817</ele>
        <time>2020-01-04T18:55:14Z</time>
      </trkpt>
      <trkpt lat="44.27139" lon="3.23575">
        <ele>810</ele>
        <time>2020-01-04T18:55:21Z</time>
      </trkpt>
      <trkpt lat="44.27147" lon="3.23572">
        <ele>809</ele>
        <time>2020-01-04T18:55:23Z</time>
      </trkpt>
      <trkpt lat="44.27154" lon="3.23573">
        <ele>809</ele>
        <time>2020-01-04T18:55:24Z</time>
      </trkpt>
      <trkpt lat="44.27162" lon="3.23578">
        <ele>812</ele>
        <time>2020-01-04T18:55:26Z</time>
      </trkpt>
      <trkpt lat="44.27208" lon="3.23635">
        <ele>824</ele>
        <time>2020-01-04T18:55:41Z</time>
      </trkpt>
      <trkpt lat="44.27253" lon="3.23668">
        <ele>827</ele>
        <time>2020-01-04T18:55:53Z</time>
      </trkpt>
      <trkpt lat="44.27291" lon="3.23691">
        <ele>829</ele>
        <time>2020-01-04T18:56:02Z</time>
      </trkpt>
      <trkpt lat="44.27303" lon="3.23706">
        <ele>833</ele>
        <time>2020-01-04T18:56:06Z</time>
      </trkpt>
      <trkpt lat="44.27317" lon="3.23718">
        <ele>836</ele>
        <time>2020-01-04T18:56:10Z</time>
      </trkpt>
      <trkpt lat="44.27396" lon="3.23772">
        <ele>831</ele>
        <time>2020-01-04T18:56:30Z</time>
      </trkpt>
      <trkpt lat="44.27402" lon="3.23781">
        <ele>831</ele>
        <time>2020-01-04T18:56:32Z</time>
      </trkpt>
      <trkpt lat="44.27408" lon="3.23813">
        <ele>837</ele>
        <time>2020-01-04T18:56:38Z</time>
      </trkpt>
      <trkpt lat="44.27409" lon="3.23865">
        <ele>842</ele>
        <time>2020-01-04T18:56:47Z</time>
      </trkpt>
      <trkpt lat="44.27396" lon="3.23875">
        <ele>846</ele>
        <time>2020-01-04T18:56:50Z</time>
      </trkpt>
      <trkpt lat="44.27348" lon="3.23885">
        <ele>860</ele>
        <time>2020-01-04T18:57:01Z</time>
      </trkpt>
      <trkpt lat="44.27339" lon="3.23892">
        <ele>862</ele>
        <time>2020-01-04T18:57:04Z</time>
      </trkpt>
      <trkpt lat="44.27336" lon="3.23898">
        <ele>863</ele>
        <time>2020-01-04T18:57:05Z</time>
      </trkpt>
      <trkpt lat="44.2723" lon="3.23803">
        <ele>864</ele>
        <time>2020-01-04T18:57:34Z</time>
      </trkpt>
      <trkpt lat="44.27158" lon="3.2372">
        <ele>862</ele>
        <time>2020-01-04T18:57:56Z</time>
      </trkpt>
      <trkpt lat="44.27151" lon="3.23713">
        <ele>861</ele>
        <time>2020-01-04T18:57:58Z</time>
      </trkpt>
      <trkpt lat="44.2714" lon="3.23709">
        <ele>861</ele>
        <time>2020-01-04T18:58:01Z</time>
      </trkpt>
      <trkpt lat="44.27118" lon="3.2371">
        <ele>862</ele>
        <time>2020-01-04T18:58:06Z</time>
      </trkpt>
      <trkpt lat="44.27063" lon="3.23743">
        <ele>871</ele>
        <time>2020-01-04T18:58:20Z</time>
      </trkpt>
      <trkpt lat="44.27047" lon="3.23744">
        <ele>873</ele>
        <time>2020-01-04T18:58:24Z</time>
      </trkpt>
      <trkpt lat="44.27036" lon="3.23742">
        <ele>873</ele>
        <time>2020-01-04T18:58:26Z</time>
      </trkpt>
      <trkpt lat="44.27015" lon="3.23734">
        <ele>873</ele>
        <time>2020-01-04T18:58:31Z</time>
      </trkpt>
      <trkpt lat="44.26979" lon="3.23738">
        <ele>875</ele>
        <time>2020-01-04T18:58:40Z</time>
      </trkpt>
      <trkpt lat="44.26959" lon="3.23737">
        <ele>876</ele>
        <time>2020-01-04T18:58:45Z</time>
      </trkpt>
      <trkpt lat="44.26916" lon="3.2376">
        <ele>882</ele>
        <time>2020-01-04T18:58:55Z</time>
      </trkpt>
      <trkpt lat="44.26847" lon="3.23828">
        <ele>888</ele>
        <time>2020-01-04T18:59:15Z</time>
      </trkpt>
      <trkpt lat="44.2684" lon="3.2385">
        <ele>889</ele>
        <time>2020-01-04T18:59:19Z</time>
      </trkpt>
      <trkpt lat="44.26835" lon="3.23907">
        <ele>888</ele>
        <time>2020-01-04T18:59:29Z</time>
      </trkpt>
      <trkpt lat="44.26815" lon="3.24031">
        <ele>891</ele>
        <time>2020-01-04T18:59:50Z</time>
      </trkpt>
      <trkpt lat="44.26809" lon="3.2405">
        <ele>892</ele>
        <time>2020-01-04T18:59:53Z</time>
      </trkpt>
      <trkpt lat="44.26782" lon="3.24106">
        <ele>894</ele>
        <time>2020-01-04T19:00:05Z</time>
      </trkpt>
      <trkpt lat="44.26751" lon="3.24163">
        <ele>899</ele>
        <time>2020-01-04T19:00:17Z</time>
      </trkpt>
      <trkpt lat="44.26742" lon="3.24176">
        <ele>899</ele>
        <time>2020-01-04T19:00:20Z</time>
      </trkpt>
      <trkpt lat="44.26719" lon="3.24193">
        <ele>899</ele>
        <time>2020-01-04T19:00:26Z</time>
      </trkpt>
      <trkpt lat="44.26666" lon="3.24215">
        <ele>897</ele>
        <time>2020-01-04T19:00:39Z</time>
      </trkpt>
      <trkpt lat="44.26647" lon="3.24229">
        <ele>898</ele>
        <time>2020-01-04T19:00:44Z</time>
      </trkpt>
      <trkpt lat="44.26586" lon="3.24299">
        <ele>899</ele>
        <time>2020-01-04T19:01:02Z</time>
      </trkpt>
      <trkpt lat="44.26549" lon="3.24373">
        <ele>899</ele>
        <time>2020-01-04T19:01:17Z</time>
      </trkpt>
      <trkpt lat="44.2654" lon="3.24385">
        <ele>899</ele>
        <time>2020-01-04T19:01:20Z</time>
      </trkpt>
      <trkpt lat="44.2652" lon="3.24404">
        <ele>898</ele>
        <time>2020-01-04T19:01:26Z</time>
      </trkpt>
      <trkpt lat="44.26498" lon="3.24406">
        <ele>897</ele>
        <time>2020-01-04T19:01:31Z</time>
      </trkpt>
      <trkpt lat="44.26459" lon="3.24415">
        <ele>895</ele>
        <time>2020-01-04T19:01:40Z</time>
      </trkpt>
      <trkpt lat="44.26421" lon="3.24405">
        <ele>891</ele>
        <time>2020-01-04T19:01:49Z</time>
      </trkpt>
      <trkpt lat="44.2635" lon="3.24407">
        <ele>883</ele>
        <time>2020-01-04T19:02:06Z</time>
      </trkpt>
      <trkpt lat="44.26274" lon="3.2442">
        <ele>873</ele>
        <time>2020-01-04T19:02:24Z</time>
      </trkpt>
      <trkpt lat="44.26265" lon="3.24423">
        <ele>872</ele>
        <time>2020-01-04T19:02:26Z</time>
      </trkpt>
      <trkpt lat="44.2626" lon="3.24429">
        <ele>872</ele>
        <time>2020-01-04T19:02:27Z</time>
      </trkpt>
      <trkpt lat="44.26245" lon="3.24432">
        <ele>871</ele>
        <time>2020-01-04T19:02:31Z</time>
      </trkpt>
      <trkpt lat="44.26218" lon="3.24422">
        <ele>868</ele>
        <time>2020-01-04T19:02:37Z</time>
      </trkpt>
      <trkpt lat="44.2619" lon="3.24408">
        <ele>864</ele>
        <time>2020-01-04T19:02:44Z</time>
      </trkpt>
      <trkpt lat="44.2613" lon="3.24398">
        <ele>860</ele>
        <time>2020-01-04T19:02:58Z</time>
      </trkpt>
      <trkpt lat="44.26098" lon="3.24393">
        <ele>858</ele>
        <time>2020-01-04T19:03:06Z</time>
      </trkpt>
      <trkpt lat="44.26024" lon="3.24392">
        <ele>855</ele>
        <time>2020-01-04T19:03:23Z</time>
      </trkpt>
      <trkpt lat="44.26004" lon="3.24394">
        <ele>854</ele>
        <time>2020-01-04T19:03:28Z</time>
      </trkpt>
      <trkpt lat="44.25987" lon="3.244">
        <ele>854</ele>
        <time>2020-01-04T19:03:32Z</time>
      </trkpt>
      <trkpt lat="44.25963" lon="3.24399">
        <ele>854</ele>
        <time>2020-01-04T19:03:38Z</time>
      </trkpt>
      <trkpt lat="44.25954" lon="3.24398">
        <ele>854</ele>
        <time>2020-01-04T19:03:40Z</time>
      </trkpt>
      <trkpt lat="44.25938" lon="3.24382">
        <ele>854</ele>
        <time>2020-01-04T19:03:44Z</time>
      </trkpt>
      <trkpt lat="44.2593" lon="3.24382">
        <ele>854</ele>
        <time>2020-01-04T19:03:46Z</time>
      </trkpt>
      <trkpt lat="44.25881" lon="3.24399">
        <ele>859</ele>
        <time>2020-01-04T19:03:58Z</time>
      </trkpt>
      <trkpt lat="44.25858" lon="3.24399">
        <ele>862</ele>
        <time>2020-01-04T19:04:03Z</time>
      </trkpt>
      <trkpt lat="44.25817" lon="3.24393">
        <ele>868</ele>
        <time>2020-01-04T19:04:13Z</time>
      </trkpt>
      <trkpt lat="44.25793" lon="3.24402">
        <ele>871</ele>
        <time>2020-01-04T19:04:19Z</time>
      </trkpt>
      <trkpt lat="44.25748" lon="3.24405">
        <ele>877</ele>
        <time>2020-01-04T19:04:29Z</time>
      </trkpt>
      <trkpt lat="44.25716" lon="3.24394">
        <ele>882</ele>
        <time>2020-01-04T19:04:37Z</time>
      </trkpt>
      <trkpt lat="44.25709" lon="3.24394">
        <ele>883</ele>
        <time>2020-01-04T19:04:39Z</time>
      </trkpt>
      <trkpt lat="44.25662" lon="3.24423">
        <ele>889</ele>
        <time>2020-01-04T19:04:51Z</time>
      </trkpt>
      <trkpt lat="44.25648" lon="3.24426">
        <ele>891</ele>
        <time>2020-01-04T19:04:54Z</time>
      </trkpt>
      <trkpt lat="44.25632" lon="3.24426">
        <ele>893</ele>
        <time>2020-01-04T19:04:58Z</time>
      </trkpt>
      <trkpt lat="44.25607" lon="3.24434">
        <ele>895</ele>
        <time>2020-01-04T19:05:04Z</time>
      </trkpt>
      <trkpt lat="44.25593" lon="3.24436">
        <ele>896</ele>
        <time>2020-01-04T19:05:07Z</time>
      </trkpt>
      <trkpt lat="44.25576" lon="3.24433">
        <ele>898</ele>
        <time>2020-01-04T19:05:11Z</time>
      </trkpt>
      <trkpt lat="44.25419" lon="3.24427">
        <ele>889</ele>
        <time>2020-01-04T19:05:48Z</time>
      </trkpt>
      <trkpt lat="44.25376" lon="3.24402">
        <ele>881</ele>
        <time>2020-01-04T19:05:59Z</time>
      </trkpt>
      <trkpt lat="44.25341" lon="3.24398">
        <ele>876</ele>
        <time>2020-01-04T19:06:07Z</time>
      </trkpt>
      <trkpt lat="44.25216" lon="3.24398">
        <ele>869</ele>
        <time>2020-01-04T19:06:36Z</time>
      </trkpt>
      <trkpt lat="44.25107" lon="3.24412">
        <ele>872</ele>
        <time>2020-01-04T19:07:02Z</time>
      </trkpt>
      <trkpt lat="44.2506" lon="3.24415">
        <ele>874</ele>
        <time>2020-01-04T19:07:12Z</time>
      </trkpt>
      <trkpt lat="44.25054" lon="3.24484">
        <ele>878</ele>
        <time>2020-01-04T19:07:24Z</time>
      </trkpt>
      <trkpt lat="44.25034" lon="3.24515">
        <ele>881</ele>
        <time>2020-01-04T19:07:31Z</time>
      </trkpt>
      <trkpt lat="44.25025" lon="3.24495">
        <ele>882</ele>
        <time>2020-01-04T19:07:35Z</time>
      </trkpt>
      <trkpt lat="44.24998" lon="3.24471">
        <ele>883</ele>
        <time>2020-01-04T19:07:43Z</time>
      </trkpt>
      <trkpt lat="44.24979" lon="3.24461">
        <ele>884</ele>
        <time>2020-01-04T19:07:47Z</time>
      </trkpt>
      <trkpt lat="44.24944" lon="3.24458">
        <ele>887</ele>
        <time>2020-01-04T19:07:55Z</time>
      </trkpt>
      <trkpt lat="44.24936" lon="3.24453">
        <ele>887</ele>
        <time>2020-01-04T19:07:58Z</time>
      </trkpt>
      <trkpt lat="44.24927" lon="3.24429">
        <ele>887</ele>
        <time>2020-01-04T19:08:02Z</time>
      </trkpt>
      <trkpt lat="44.24914" lon="3.24422">
        <ele>888</ele>
        <time>2020-01-04T19:08:05Z</time>
      </trkpt>
      <trkpt lat="44.24907" lon="3.24422">
        <ele>888</ele>
        <time>2020-01-04T19:08:07Z</time>
      </trkpt>
      <trkpt lat="44.24898" lon="3.24427">
        <ele>889</ele>
        <time>2020-01-04T19:08:09Z</time>
      </trkpt>
      <trkpt lat="44.24893" lon="3.24427">
        <ele>889</ele>
        <time>2020-01-04T19:08:10Z</time>
      </trkpt>
      <trkpt lat="44.24855" lon="3.24409">
        <ele>891</ele>
        <time>2020-01-04T19:08:20Z</time>
      </trkpt>
      <trkpt lat="44.24836" lon="3.24398">
        <ele>893</ele>
        <time>2020-01-04T19:08:25Z</time>
      </trkpt>
      <trkpt lat="44.24833" lon="3.24394">
        <ele>893</ele>
        <time>2020-01-04T19:08:25Z</time>
      </trkpt>
      <trkpt lat="44.24818" lon="3.24395">
        <ele>892</ele>
        <time>2020-01-04T19:08:29Z</time>
      </trkpt>
      <trkpt lat="44.24777" lon="3.24377">
        <ele>889</ele>
        <time>2020-01-04T19:08:39Z</time>
      </trkpt>
      <trkpt lat="44.24725" lon="3.24343">
        <ele>882</ele>
        <time>2020-01-04T19:08:52Z</time>
      </trkpt>
      <trkpt lat="44.24682" lon="3.24322">
        <ele>875</ele>
        <time>2020-01-04T19:09:03Z</time>
      </trkpt>
      <trkpt lat="44.24613" lon="3.24299">
        <ele>865</ele>
        <time>2020-01-04T19:09:20Z</time>
      </trkpt>
      <trkpt lat="44.24595" lon="3.24297">
        <ele>862</ele>
        <time>2020-01-04T19:09:24Z</time>
      </trkpt>
      <trkpt lat="44.24593" lon="3.24264">
        <ele>861</ele>
        <time>2020-01-04T19:09:29Z</time>
      </trkpt>
      <trkpt lat="44.24569" lon="3.24241">
        <ele>859</ele>
        <time>2020-01-04T19:09:36Z</time>
      </trkpt>
      <trkpt lat="44.24562" lon="3.24239">
        <ele>858</ele>
        <time>2020-01-04T19:09:38Z</time>
      </trkpt>
      <trkpt lat="44.24541" lon="3.2424">
        <ele>856</ele>
        <time>2020-01-04T19:09:43Z</time>
      </trkpt>
      <trkpt lat="44.24538" lon="3.24243">
        <ele>856</ele>
        <time>2020-01-04T19:09:44Z</time>
      </trkpt>
      <trkpt lat="44.24527" lon="3.24245">
        <ele>855</ele>
        <time>2020-01-04T19:09:46Z</time>
      </trkpt>
      <trkpt lat="44.24404" lon="3.24217">
        <ele>852</ele>
        <time>2020-01-04T19:10:15Z</time>
      </trkpt>
      <trkpt lat="44.24388" lon="3.24216">
        <ele>853</ele>
        <time>2020-01-04T19:10:19Z</time>
      </trkpt>
      <trkpt lat="44.2438" lon="3.24218">
        <ele>853</ele>
        <time>2020-01-04T19:10:21Z</time>
      </trkpt>
      <trkpt lat="44.24351" lon="3.2424">
        <ele>854</ele>
        <time>2020-01-04T19:10:29Z</time>
      </trkpt>
      <trkpt lat="44.24339" lon="3.24246">
        <ele>855</ele>
        <time>2020-01-04T19:10:32Z</time>
      </trkpt>
      <trkpt lat="44.24308" lon="3.24252">
        <ele>855</ele>
        <time>2020-01-04T19:10:39Z</time>
      </trkpt>
      <trkpt lat="44.24298" lon="3.2425">
        <ele>855</ele>
        <time>2020-01-04T19:10:41Z</time>
      </trkpt>
      <trkpt lat="44.24251" lon="3.24228">
        <ele>857</ele>
        <time>2020-01-04T19:10:53Z</time>
      </trkpt>
      <trkpt lat="44.24183" lon="3.24168">
        <ele>859</ele>
        <time>2020-01-04T19:11:12Z</time>
      </trkpt>
      <trkpt lat="44.24173" lon="3.24171">
        <ele>859</ele>
        <time>2020-01-04T19:11:14Z</time>
      </trkpt>
      <trkpt lat="44.24091" lon="3.24157">
        <ele>856</ele>
        <time>2020-01-04T19:11:33Z</time>
      </trkpt>
      <trkpt lat="44.24091" lon="3.24116">
        <ele>853</ele>
        <time>2020-01-04T19:11:40Z</time>
      </trkpt>
      <trkpt lat="44.2407" lon="3.2412">
        <ele>855</ele>
        <time>2020-01-04T19:11:45Z</time>
      </trkpt>
      <trkpt lat="44.24016" lon="3.24146">
        <ele>859</ele>
        <time>2020-01-04T19:11:59Z</time>
      </trkpt>
      <trkpt lat="44.24001" lon="3.24174">
        <ele>861</ele>
        <time>2020-01-04T19:12:04Z</time>
      </trkpt>
      <trkpt lat="44.23972" lon="3.24197">
        <ele>862</ele>
        <time>2020-01-04T19:12:12Z</time>
      </trkpt>
      <trkpt lat="44.23954" lon="3.24198">
        <ele>863</ele>
        <time>2020-01-04T19:12:16Z</time>
      </trkpt>
      <trkpt lat="44.23941" lon="3.24195">
        <ele>863</ele>
        <time>2020-01-04T19:12:19Z</time>
      </trkpt>
      <trkpt lat="44.23928" lon="3.242">
        <ele>864</ele>
        <time>2020-01-04T19:12:23Z</time>
      </trkpt>
      <trkpt lat="44.23918" lon="3.242">
        <ele>864</ele>
        <time>2020-01-04T19:12:25Z</time>
      </trkpt>
      <trkpt lat="44.23909" lon="3.24195">
        <ele>864</ele>
        <time>2020-01-04T19:12:27Z</time>
      </trkpt>
      <trkpt lat="44.23887" lon="3.242">
        <ele>865</ele>
        <time>2020-01-04T19:12:32Z</time>
      </trkpt>
      <trkpt lat="44.23877" lon="3.24208">
        <ele>865</ele>
        <time>2020-01-04T19:12:35Z</time>
      </trkpt>
      <trkpt lat="44.23872" lon="3.24217">
        <ele>866</ele>
        <time>2020-01-04T19:12:37Z</time>
      </trkpt>
      <trkpt lat="44.23842" lon="3.24228">
        <ele>867</ele>
        <time>2020-01-04T19:12:44Z</time>
      </trkpt>
      <trkpt lat="44.23825" lon="3.2424">
        <ele>868</ele>
        <time>2020-01-04T19:12:49Z</time>
      </trkpt>
      <trkpt lat="44.23795" lon="3.24268">
        <ele>869</ele>
        <time>2020-01-04T19:12:57Z</time>
      </trkpt>
      <trkpt lat="44.23787" lon="3.24279">
        <ele>870</ele>
        <time>2020-01-04T19:13:00Z</time>
      </trkpt>
      <trkpt lat="44.23769" lon="3.24292">
        <ele>870</ele>
        <time>2020-01-04T19:13:04Z</time>
      </trkpt>
      <trkpt lat="44.2375" lon="3.24296">
        <ele>871</ele>
        <time>2020-01-04T19:13:09Z</time>
      </trkpt>
      <trkpt lat="44.23718" lon="3.24298">
        <ele>871</ele>
        <time>2020-01-04T19:13:16Z</time>
      </trkpt>
      <trkpt lat="44.23703" lon="3.24296">
        <ele>870</ele>
        <time>2020-01-04T19:13:20Z</time>
      </trkpt>
      <trkpt lat="44.23598" lon="3.24301">
        <ele>870</ele>
        <time>2020-01-04T19:13:44Z</time>
      </trkpt>
      <trkpt lat="44.23576" lon="3.24298">
        <ele>870</ele>
        <time>2020-01-04T19:13:50Z</time>
      </trkpt>
      <trkpt lat="44.23531" lon="3.24301">
        <ele>869</ele>
        <time>2020-01-04T19:14:00Z</time>
      </trkpt>
      <trkpt lat="44.23482" lon="3.2432">
        <ele>868</ele>
        <time>2020-01-04T19:14:12Z</time>
      </trkpt>
      <trkpt lat="44.23398" lon="3.24346">
        <ele>867</ele>
        <time>2020-01-04T19:14:32Z</time>
      </trkpt>
      <trkpt lat="44.23379" lon="3.24356">
        <ele>868</ele>
        <time>2020-01-04T19:14:37Z</time>
      </trkpt>
      <trkpt lat="44.2334" lon="3.24365">
        <ele>869</ele>
        <time>2020-01-04T19:14:46Z</time>
      </trkpt>
      <trkpt lat="44.23323" lon="3.24361">
        <ele>868</ele>
        <time>2020-01-04T19:14:50Z</time>
      </trkpt>
      <trkpt lat="44.23257" lon="3.24333">
        <ele>867</ele>
        <time>2020-01-04T19:15:06Z</time>
      </trkpt>
      <trkpt lat="44.23246" lon="3.24331">
        <ele>867</ele>
        <time>2020-01-04T19:15:09Z</time>
      </trkpt>
      <trkpt lat="44.23216" lon="3.24337">
        <ele>866</ele>
        <time>2020-01-04T19:15:16Z</time>
      </trkpt>
      <trkpt lat="44.23201" lon="3.24346">
        <ele>866</ele>
        <time>2020-01-04T19:15:20Z</time>
      </trkpt>
      <trkpt lat="44.23147" lon="3.24361">
        <ele>866</ele>
        <time>2020-01-04T19:15:33Z</time>
      </trkpt>
      <trkpt lat="44.23139" lon="3.24358">
        <ele>866</ele>
        <time>2020-01-04T19:15:35Z</time>
      </trkpt>
      <trkpt lat="44.23126" lon="3.24348">
        <ele>865</ele>
        <time>2020-01-04T19:15:38Z</time>
      </trkpt>
      <trkpt lat="44.23091" lon="3.24333">
        <ele>864</ele>
        <time>2020-01-04T19:15:47Z</time>
      </trkpt>
      <trkpt lat="44.23072" lon="3.24318">
        <ele>865</ele>
        <time>2020-01-04T19:15:52Z</time>
      </trkpt>
      <trkpt lat="44.23061" lon="3.24313">
        <ele>866</ele>
        <time>2020-01-04T19:15:54Z</time>
      </trkpt>
      <trkpt lat="44.23042" lon="3.24313">
        <ele>868</ele>
        <time>2020-01-04T19:15:59Z</time>
      </trkpt>
      <trkpt lat="44.23031" lon="3.24305">
        <ele>869</ele>
        <time>2020-01-04T19:16:02Z</time>
      </trkpt>
      <trkpt lat="44.23012" lon="3.24283">
        <ele>870</ele>
        <time>2020-01-04T19:16:07Z</time>
      </trkpt>
      <trkpt lat="44.22988" lon="3.24279">
        <ele>871</ele>
        <time>2020-01-04T19:16:13Z</time>
      </trkpt>
      <trkpt lat="44.22945" lon="3.24262">
        <ele>873</ele>
        <time>2020-01-04T19:16:24Z</time>
      </trkpt>
      <trkpt lat="44.22937" lon="3.24264">
        <ele>873</ele>
        <time>2020-01-04T19:16:25Z</time>
      </trkpt>
      <trkpt lat="44.22924" lon="3.24281">
        <ele>875</ele>
        <time>2020-01-04T19:16:30Z</time>
      </trkpt>
      <trkpt lat="44.2292" lon="3.24294">
        <ele>876</ele>
        <time>2020-01-04T19:16:32Z</time>
      </trkpt>
      <trkpt lat="44.22903" lon="3.24311">
        <ele>876</ele>
        <time>2020-01-04T19:16:37Z</time>
      </trkpt>
      <trkpt lat="44.22896" lon="3.24328">
        <ele>877</ele>
        <time>2020-01-04T19:16:40Z</time>
      </trkpt>
      <trkpt lat="44.22883" lon="3.2435">
        <ele>877</ele>
        <time>2020-01-04T19:16:45Z</time>
      </trkpt>
      <trkpt lat="44.22881" lon="3.24365">
        <ele>878</ele>
        <time>2020-01-04T19:16:47Z</time>
      </trkpt>
      <trkpt lat="44.22873" lon="3.24378">
        <ele>878</ele>
        <time>2020-01-04T19:16:50Z</time>
      </trkpt>
      <trkpt lat="44.22862" lon="3.24382">
        <ele>878</ele>
        <time>2020-01-04T19:16:53Z</time>
      </trkpt>
      <trkpt lat="44.22827" lon="3.24382">
        <ele>876</ele>
        <time>2020-01-04T19:17:01Z</time>
      </trkpt>
      <trkpt lat="44.22804" lon="3.24386">
        <ele>874</ele>
        <time>2020-01-04T19:17:07Z</time>
      </trkpt>
      <trkpt lat="44.22795" lon="3.24391">
        <ele>874</ele>
        <time>2020-01-04T19:17:09Z</time>
      </trkpt>
      <trkpt lat="44.22772" lon="3.24384">
        <ele>871</ele>
        <time>2020-01-04T19:17:14Z</time>
      </trkpt>
      <trkpt lat="44.22757" lon="3.24389">
        <ele>870</ele>
        <time>2020-01-04T19:17:18Z</time>
      </trkpt>
      <trkpt lat="44.22744" lon="3.24397">
        <ele>870</ele>
        <time>2020-01-04T19:17:21Z</time>
      </trkpt>
      <trkpt lat="44.22722" lon="3.24401">
        <ele>870</ele>
        <time>2020-01-04T19:17:26Z</time>
      </trkpt>
      <trkpt lat="44.22707" lon="3.24391">
        <ele>867</ele>
        <time>2020-01-04T19:17:30Z</time>
      </trkpt>
      <trkpt lat="44.22669" lon="3.24382">
        <ele>864</ele>
        <time>2020-01-04T19:17:39Z</time>
      </trkpt>
      <trkpt lat="44.22621" lon="3.24356">
        <ele>859</ele>
        <time>2020-01-04T19:17:51Z</time>
      </trkpt>
      <trkpt lat="44.22574" lon="3.24337">
        <ele>856</ele>
        <time>2020-01-04T19:18:03Z</time>
      </trkpt>
      <trkpt lat="44.22531" lon="3.24313">
        <ele>853</ele>
        <time>2020-01-04T19:18:14Z</time>
      </trkpt>
      <trkpt lat="44.22476" lon="3.24298">
        <ele>851</ele>
        <time>2020-01-04T19:18:27Z</time>
      </trkpt>
      <trkpt lat="44.22446" lon="3.24279">
        <ele>849</ele>
        <time>2020-01-04T19:18:34Z</time>
      </trkpt>
      <trkpt lat="44.22431" lon="3.24265">
        <ele>848</ele>
        <time>2020-01-04T19:18:39Z</time>
      </trkpt>
      <trkpt lat="44.2242" lon="3.24245">
        <ele>845</ele>
        <time>2020-01-04T19:18:43Z</time>
      </trkpt>
      <trkpt lat="44.2239" lon="3.24221">
        <ele>842</ele>
        <time>2020-01-04T19:18:51Z</time>
      </trkpt>
      <trkpt lat="44.2237" lon="3.24215">
        <ele>842</ele>
        <time>2020-01-04T19:18:56Z</time>
      </trkpt>
      <trkpt lat="44.22347" lon="3.24215">
        <ele>842</ele>
        <time>2020-01-04T19:19:01Z</time>
      </trkpt>
      <trkpt lat="44.22332" lon="3.24219">
        <ele>842</ele>
        <time>2020-01-04T19:19:05Z</time>
      </trkpt>
      <trkpt lat="44.22323" lon="3.2423">
        <ele>843</ele>
        <time>2020-01-04T19:19:07Z</time>
      </trkpt>
      <trkpt lat="44.22317" lon="3.24253">
        <ele>845</ele>
        <time>2020-01-04T19:19:11Z</time>
      </trkpt>
      <trkpt lat="44.22308" lon="3.24262">
        <ele>846</ele>
        <time>2020-01-04T19:19:14Z</time>
      </trkpt>
      <trkpt lat="44.22302" lon="3.24258">
        <ele>845</ele>
        <time>2020-01-04T19:19:16Z</time>
      </trkpt>
      <trkpt lat="44.22293" lon="3.24232">
        <ele>844</ele>
        <time>2020-01-04T19:19:20Z</time>
      </trkpt>
      <trkpt lat="44.22287" lon="3.24228">
        <ele>843</ele>
        <time>2020-01-04T19:19:22Z</time>
      </trkpt>
      <trkpt lat="44.2228" lon="3.24228">
        <ele>843</ele>
        <time>2020-01-04T19:19:24Z</time>
      </trkpt>
      <trkpt lat="44.2227" lon="3.24249">
        <ele>844</ele>
        <time>2020-01-04T19:19:28Z</time>
      </trkpt>
      <trkpt lat="44.22261" lon="3.24292">
        <ele>848</ele>
        <time>2020-01-04T19:19:35Z</time>
      </trkpt>
      <trkpt lat="44.2225" lon="3.24311">
        <ele>850</ele>
        <time>2020-01-04T19:19:39Z</time>
      </trkpt>
      <trkpt lat="44.22212" lon="3.24423">
        <ele>864</ele>
        <time>2020-01-04T19:20:00Z</time>
      </trkpt>
      <trkpt lat="44.22194" lon="3.24438">
        <ele>865</ele>
        <time>2020-01-04T19:20:05Z</time>
      </trkpt>
      <trkpt lat="44.22182" lon="3.24461">
        <ele>867</ele>
        <time>2020-01-04T19:20:10Z</time>
      </trkpt>
      <trkpt lat="44.22164" lon="3.24472">
        <ele>867</ele>
        <time>2020-01-04T19:20:14Z</time>
      </trkpt>
      <trkpt lat="44.22149" lon="3.24489">
        <ele>869</ele>
        <time>2020-01-04T19:20:19Z</time>
      </trkpt>
      <trkpt lat="44.22147" lon="3.24513">
        <ele>871</ele>
        <time>2020-01-04T19:20:23Z</time>
      </trkpt>
      <trkpt lat="44.22139" lon="3.24543">
        <ele>875</ele>
        <time>2020-01-04T19:20:28Z</time>
      </trkpt>
      <trkpt lat="44.22162" lon="3.24545">
        <ele>876</ele>
        <time>2020-01-04T19:20:34Z</time>
      </trkpt>
      <trkpt lat="44.2221" lon="3.24575">
        <ele>884</ele>
        <time>2020-01-04T19:20:46Z</time>
      </trkpt>
      <trkpt lat="44.2222" lon="3.24597">
        <ele>887</ele>
        <time>2020-01-04T19:20:50Z</time>
      </trkpt>
      <trkpt lat="44.22229" lon="3.24637">
        <ele>894</ele>
        <time>2020-01-04T19:20:57Z</time>
      </trkpt>
      <trkpt lat="44.22222" lon="3.24708">
        <ele>905</ele>
        <time>2020-01-04T19:21:09Z</time>
      </trkpt>
      <trkpt lat="44.22229" lon="3.2476">
        <ele>915</ele>
        <time>2020-01-04T19:21:18Z</time>
      </trkpt>
      <trkpt lat="44.22235" lon="3.24785">
        <ele>920</ele>
        <time>2020-01-04T19:21:23Z</time>
      </trkpt>
      <trkpt lat="44.22237" lon="3.24824">
        <ele>927</ele>
        <time>2020-01-04T19:21:29Z</time>
      </trkpt>
      <trkpt lat="44.22225" lon="3.24936">
        <ele>944</ele>
        <time>2020-01-04T19:21:48Z</time>
      </trkpt>
      <trkpt lat="44.22229" lon="3.24966">
        <ele>947</ele>
        <time>2020-01-04T19:21:53Z</time>
      </trkpt>
      <trkpt lat="44.22214" lon="3.25034">
        <ele>956</ele>
        <time>2020-01-04T19:22:05Z</time>
      </trkpt>
      <trkpt lat="44.22197" lon="3.25071">
        <ele>962</ele>
        <time>2020-01-04T19:22:12Z</time>
      </trkpt>
      <trkpt lat="44.22177" lon="3.25099">
        <ele>966</ele>
        <time>2020-01-04T19:22:19Z</time>
      </trkpt>
      <trkpt lat="44.22171" lon="3.25116">
        <ele>968</ele>
        <time>2020-01-04T19:22:22Z</time>
      </trkpt>
      <trkpt lat="44.22169" lon="3.2518">
        <ele>972</ele>
        <time>2020-01-04T19:22:33Z</time>
      </trkpt>
      <trkpt lat="44.22162" lon="3.25234">
        <ele>975</ele>
        <time>2020-01-04T19:22:42Z</time>
      </trkpt>
      <trkpt lat="44.22158" lon="3.25249">
        <ele>975</ele>
        <time>2020-01-04T19:22:45Z</time>
      </trkpt>
      <trkpt lat="44.2216" lon="3.25266">
        <ele>976</ele>
        <time>2020-01-04T19:22:48Z</time>
      </trkpt>
      <trkpt lat="44.22164" lon="3.25288">
        <ele>977</ele>
        <time>2020-01-04T19:22:52Z</time>
      </trkpt>
      <trkpt lat="44.22179" lon="3.25315">
        <ele>977</ele>
        <time>2020-01-04T19:22:57Z</time>
      </trkpt>
      <trkpt lat="44.22194" lon="3.25328">
        <ele>977</ele>
        <time>2020-01-04T19:23:01Z</time>
      </trkpt>
      <trkpt lat="44.22201" lon="3.25354">
        <ele>977</ele>
        <time>2020-01-04T19:23:06Z</time>
      </trkpt>
      <trkpt lat="44.22201" lon="3.25376">
        <ele>977</ele>
        <time>2020-01-04T19:23:10Z</time>
      </trkpt>
      <trkpt lat="44.22205" lon="3.25393">
        <ele>977</ele>
        <time>2020-01-04T19:23:13Z</time>
      </trkpt>
      <trkpt lat="44.22248" lon="3.25425">
        <ele>979</ele>
        <time>2020-01-04T19:23:24Z</time>
      </trkpt>
      <trkpt lat="44.22265" lon="3.25433">
        <ele>978</ele>
        <time>2020-01-04T19:23:28Z</time>
      </trkpt>
      <trkpt lat="44.2228" lon="3.25436">
        <ele>978</ele>
        <time>2020-01-04T19:23:32Z</time>
      </trkpt>
      <trkpt lat="44.22295" lon="3.25446">
        <ele>978</ele>
        <time>2020-01-04T19:23:36Z</time>
      </trkpt>
      <trkpt lat="44.22319" lon="3.25472">
        <ele>979</ele>
        <time>2020-01-04T19:23:43Z</time>
      </trkpt>
      <trkpt lat="44.22405" lon="3.25534">
        <ele>979</ele>
        <time>2020-01-04T19:24:05Z</time>
      </trkpt>
      <trkpt lat="44.22437" lon="3.25554">
        <ele>979</ele>
        <time>2020-01-04T19:24:14Z</time>
      </trkpt>
      <trkpt lat="44.2248" lon="3.25575">
        <ele>979</ele>
        <time>2020-01-04T19:24:24Z</time>
      </trkpt>
      <trkpt lat="44.22503" lon="3.25594">
        <ele>979</ele>
        <time>2020-01-04T19:24:30Z</time>
      </trkpt>
      <trkpt lat="44.22519" lon="3.25614">
        <ele>979</ele>
        <time>2020-01-04T19:24:35Z</time>
      </trkpt>
      <trkpt lat="44.22512" lon="3.25605">
        <ele>979</ele>
        <time>2020-01-04T19:24:38Z</time>
      </trkpt>
      <trkpt lat="44.22496" lon="3.25619">
        <ele>976</ele>
        <time>2020-01-04T19:24:42Z</time>
      </trkpt>
      <trkpt lat="44.22466" lon="3.25652">
        <ele>969</ele>
        <time>2020-01-04T19:24:51Z</time>
      </trkpt>
      <trkpt lat="44.22456" lon="3.2567">
        <ele>965</ele>
        <time>2020-01-04T19:24:55Z</time>
      </trkpt>
      <trkpt lat="44.22333" lon="3.25771">
        <ele>941</ele>
        <time>2020-01-04T19:25:28Z</time>
      </trkpt>
      <trkpt lat="44.2228" lon="3.25797">
        <ele>940</ele>
        <time>2020-01-04T19:25:41Z</time>
      </trkpt>
      <trkpt lat="44.22245" lon="3.2581">
        <ele>939</ele>
        <time>2020-01-04T19:25:50Z</time>
      </trkpt>
      <trkpt lat="44.22226" lon="3.25815">
        <ele>939</ele>
        <time>2020-01-04T19:25:54Z</time>
      </trkpt>
      <trkpt lat="44.22201" lon="3.25818">
        <ele>938</ele>
        <time>2020-01-04T19:26:00Z</time>
      </trkpt>
      <trkpt lat="44.2221" lon="3.25822">
        <ele>939</ele>
        <time>2020-01-04T19:26:02Z</time>
      </trkpt>
      <trkpt lat="44.22215" lon="3.25828">
        <ele>939</ele>
        <time>2020-01-04T19:26:04Z</time>
      </trkpt>
      <trkpt lat="44.22231" lon="3.25855">
        <ele>940</ele>
        <time>2020-01-04T19:26:10Z</time>
      </trkpt>
      <trkpt lat="44.22248" lon="3.25891">
        <ele>941</ele>
        <time>2020-01-04T19:26:17Z</time>
      </trkpt>
      <trkpt lat="44.22254" lon="3.2592">
        <ele>942</ele>
        <time>2020-01-04T19:26:22Z</time>
      </trkpt>
      <trkpt lat="44.2228" lon="3.25955">
        <ele>943</ele>
        <time>2020-01-04T19:26:30Z</time>
      </trkpt>
      <trkpt lat="44.2229" lon="3.25989">
        <ele>943</ele>
        <time>2020-01-04T19:26:37Z</time>
      </trkpt>
      <trkpt lat="44.22301" lon="3.26013">
        <ele>944</ele>
        <time>2020-01-04T19:26:41Z</time>
      </trkpt>
      <trkpt lat="44.22309" lon="3.26025">
        <ele>944</ele>
        <time>2020-01-04T19:26:44Z</time>
      </trkpt>
      <trkpt lat="44.22332" lon="3.26072">
        <ele>946</ele>
        <time>2020-01-04T19:26:54Z</time>
      </trkpt>
      <trkpt lat="44.22357" lon="3.26104">
        <ele>948</ele>
        <time>2020-01-04T19:27:02Z</time>
      </trkpt>
      <trkpt lat="44.22326" lon="3.26124">
        <ele>948</ele>
        <time>2020-01-04T19:27:10Z</time>
      </trkpt>
      <trkpt lat="44.22309" lon="3.26124">
        <ele>946</ele>
        <time>2020-01-04T19:27:14Z</time>
      </trkpt>
      <trkpt lat="44.22291" lon="3.26131">
        <ele>944</ele>
        <time>2020-01-04T19:27:18Z</time>
      </trkpt>
      <trkpt lat="44.22253" lon="3.26179">
        <ele>940</ele>
        <time>2020-01-04T19:27:30Z</time>
      </trkpt>
      <trkpt lat="44.22239" lon="3.26188">
        <ele>937</ele>
        <time>2020-01-04T19:27:33Z</time>
      </trkpt>
      <trkpt lat="44.22187" lon="3.26183">
        <ele>927</ele>
        <time>2020-01-04T19:27:46Z</time>
      </trkpt>
      <trkpt lat="44.2217" lon="3.26184">
        <ele>923</ele>
        <time>2020-01-04T19:27:50Z</time>
      </trkpt>
      <trkpt lat="44.22169" lon="3.26148">
        <ele>925</ele>
        <time>2020-01-04T19:27:56Z</time>
      </trkpt>
      <trkpt lat="44.2217" lon="3.26184">
        <ele>923</ele>
        <time>2020-01-04T19:28:02Z</time>
      </trkpt>
      <trkpt lat="44.22135" lon="3.26186">
        <ele>917</ele>
        <time>2020-01-04T19:28:10Z</time>
      </trkpt>
      <trkpt lat="44.22096" lon="3.26207">
        <ele>910</ele>
        <time>2020-01-04T19:28:20Z</time>
      </trkpt>
      <trkpt lat="44.22072" lon="3.26213">
        <ele>907</ele>
        <time>2020-01-04T19:28:25Z</time>
      </trkpt>
      <trkpt lat="44.22058" lon="3.26213">
        <ele>905</ele>
        <time>2020-01-04T19:28:29Z</time>
      </trkpt>
      <trkpt lat="44.22022" lon="3.26219">
        <ele>902</ele>
        <time>2020-01-04T19:28:37Z</time>
      </trkpt>
      <trkpt lat="44.21999" lon="3.26227">
        <ele>900</ele>
        <time>2020-01-04T19:28:43Z</time>
      </trkpt>
      <trkpt lat="44.21997" lon="3.26232">
        <ele>900</ele>
        <time>2020-01-04T19:28:44Z</time>
      </trkpt>
      <trkpt lat="44.21996" lon="3.2625">
        <ele>900</ele>
        <time>2020-01-04T19:28:47Z</time>
      </trkpt>
      <trkpt lat="44.22004" lon="3.26277">
        <ele>903</ele>
        <time>2020-01-04T19:28:51Z</time>
      </trkpt>
      <trkpt lat="44.22013" lon="3.26294">
        <ele>904</ele>
        <time>2020-01-04T19:28:55Z</time>
      </trkpt>
      <trkpt lat="44.22019" lon="3.26317">
        <ele>906</ele>
        <time>2020-01-04T19:28:59Z</time>
      </trkpt>
      <trkpt lat="44.22016" lon="3.26352">
        <ele>908</ele>
        <time>2020-01-04T19:29:05Z</time>
      </trkpt>
      <trkpt lat="44.22014" lon="3.26356">
        <ele>908</ele>
        <time>2020-01-04T19:29:06Z</time>
      </trkpt>
      <trkpt lat="44.22005" lon="3.26358">
        <ele>908</ele>
        <time>2020-01-04T19:29:08Z</time>
      </trkpt>
      <trkpt lat="44.22" lon="3.26363">
        <ele>908</ele>
        <time>2020-01-04T19:29:09Z</time>
      </trkpt>
      <trkpt lat="44.21984" lon="3.26369">
        <ele>909</ele>
        <time>2020-01-04T19:29:13Z</time>
      </trkpt>
      <trkpt lat="44.21977" lon="3.26387">
        <ele>910</ele>
        <time>2020-01-04T19:29:17Z</time>
      </trkpt>
      <trkpt lat="44.21966" lon="3.26389">
        <ele>911</ele>
        <time>2020-01-04T19:29:19Z</time>
      </trkpt>
      <trkpt lat="44.21962" lon="3.26396">
        <ele>911</ele>
        <time>2020-01-04T19:29:21Z</time>
      </trkpt>
      <trkpt lat="44.2196" lon="3.26409">
        <ele>912</ele>
        <time>2020-01-04T19:29:23Z</time>
      </trkpt>
      <trkpt lat="44.21961" lon="3.26449">
        <ele>910</ele>
        <time>2020-01-04T19:29:30Z</time>
      </trkpt>
      <trkpt lat="44.21925" lon="3.26503">
        <ele>909</ele>
        <time>2020-01-04T19:29:42Z</time>
      </trkpt>
      <trkpt lat="44.21901" lon="3.26556">
        <ele>911</ele>
        <time>2020-01-04T19:29:52Z</time>
      </trkpt>
      <trkpt lat="44.21891" lon="3.2657">
        <ele>912</ele>
        <time>2020-01-04T19:29:56Z</time>
      </trkpt>
      <trkpt lat="44.21876" lon="3.2658">
        <ele>914</ele>
        <time>2020-01-04T19:30:00Z</time>
      </trkpt>
      <trkpt lat="44.21865" lon="3.26594">
        <ele>915</ele>
        <time>2020-01-04T19:30:03Z</time>
      </trkpt>
      <trkpt lat="44.21862" lon="3.26602">
        <ele>915</ele>
        <time>2020-01-04T19:30:05Z</time>
      </trkpt>
      <trkpt lat="44.21863" lon="3.26638">
        <ele>914</ele>
        <time>2020-01-04T19:30:11Z</time>
      </trkpt>
      <trkpt lat="44.21861" lon="3.26657">
        <ele>914</ele>
        <time>2020-01-04T19:30:14Z</time>
      </trkpt>
      <trkpt lat="44.21867" lon="3.26675">
        <ele>913</ele>
        <time>2020-01-04T19:30:17Z</time>
      </trkpt>
      <trkpt lat="44.21868" lon="3.2669">
        <ele>913</ele>
        <time>2020-01-04T19:30:20Z</time>
      </trkpt>
      <trkpt lat="44.2186" lon="3.26731">
        <ele>912</ele>
        <time>2020-01-04T19:30:27Z</time>
      </trkpt>
      <trkpt lat="44.2187" lon="3.26762">
        <ele>912</ele>
        <time>2020-01-04T19:30:33Z</time>
      </trkpt>
      <trkpt lat="44.21851" lon="3.26853">
        <ele>914</ele>
        <time>2020-01-04T19:30:48Z</time>
      </trkpt>
      <trkpt lat="44.21849" lon="3.26886">
        <ele>913</ele>
        <time>2020-01-04T19:30:54Z</time>
      </trkpt>
      <trkpt lat="44.21852" lon="3.26963">
        <ele>913</ele>
        <time>2020-01-04T19:31:07Z</time>
      </trkpt>
      <trkpt lat="44.21843" lon="3.26999">
        <ele>911</ele>
        <time>2020-01-04T19:31:13Z</time>
      </trkpt>
      <trkpt lat="44.21821" lon="3.27059">
        <ele>908</ele>
        <time>2020-01-04T19:31:25Z</time>
      </trkpt>
      <trkpt lat="44.21815" lon="3.27118">
        <ele>906</ele>
        <time>2020-01-04T19:31:34Z</time>
      </trkpt>
      <trkpt lat="44.21816" lon="3.2719">
        <ele>905</ele>
        <time>2020-01-04T19:31:47Z</time>
      </trkpt>
      <trkpt lat="44.21795" lon="3.27265">
        <ele>904</ele>
        <time>2020-01-04T19:32:00Z</time>
      </trkpt>
      <trkpt lat="44.21792" lon="3.27287">
        <ele>903</ele>
        <time>2020-01-04T19:32:04Z</time>
      </trkpt>
      <trkpt lat="44.21802" lon="3.27295">
        <ele>904</ele>
        <time>2020-01-04T19:32:06Z</time>
      </trkpt>
      <trkpt lat="44.21799" lon="3.27301">
        <ele>904</ele>
        <time>2020-01-04T19:32:08Z</time>
      </trkpt>
      <trkpt lat="44.21798" lon="3.27334">
        <ele>903</ele>
        <time>2020-01-04T19:32:13Z</time>
      </trkpt>
      <trkpt lat="44.21788" lon="3.27383">
        <ele>902</ele>
        <time>2020-01-04T19:32:22Z</time>
      </trkpt>
      <trkpt lat="44.21757" lon="3.27508">
        <ele>899</ele>
        <time>2020-01-04T19:32:44Z</time>
      </trkpt>
      <trkpt lat="44.21748" lon="3.27603">
        <ele>895</ele>
        <time>2020-01-04T19:33:00Z</time>
      </trkpt>
      <trkpt lat="44.21749" lon="3.27609">
        <ele>894</ele>
        <time>2020-01-04T19:33:01Z</time>
      </trkpt>
      <trkpt lat="44.21768" lon="3.27609">
        <ele>894</ele>
        <time>2020-01-04T19:33:05Z</time>
      </trkpt>
      <trkpt lat="44.21823" lon="3.27617">
        <ele>893</ele>
        <time>2020-01-04T19:33:18Z</time>
      </trkpt>
      <trkpt lat="44.21855" lon="3.27614">
        <ele>893</ele>
        <time>2020-01-04T19:33:26Z</time>
      </trkpt>
      <trkpt lat="44.21911" lon="3.27616">
        <ele>894</ele>
        <time>2020-01-04T19:33:39Z</time>
      </trkpt>
      <trkpt lat="44.21934" lon="3.27623">
        <ele>894</ele>
        <time>2020-01-04T19:33:44Z</time>
      </trkpt>
      <trkpt lat="44.21954" lon="3.27626">
        <ele>894</ele>
        <time>2020-01-04T19:33:49Z</time>
      </trkpt>
      <trkpt lat="44.21986" lon="3.27617">
        <ele>895</ele>
        <time>2020-01-04T19:33:57Z</time>
      </trkpt>
      <trkpt lat="44.22032" lon="3.27599">
        <ele>896</ele>
        <time>2020-01-04T19:34:08Z</time>
      </trkpt>
      <trkpt lat="44.22047" lon="3.27592">
        <ele>897</ele>
        <time>2020-01-04T19:34:12Z</time>
      </trkpt>
      <trkpt lat="44.22108" lon="3.2755">
        <ele>902</ele>
        <time>2020-01-04T19:34:27Z</time>
      </trkpt>
      <trkpt lat="44.22134" lon="3.27529">
        <ele>905</ele>
        <time>2020-01-04T19:34:34Z</time>
      </trkpt>
      <trkpt lat="44.22142" lon="3.2753">
        <ele>906</ele>
        <time>2020-01-04T19:34:36Z</time>
      </trkpt>
      <trkpt lat="44.22155" lon="3.27516">
        <ele>908</ele>
        <time>2020-01-04T19:34:40Z</time>
      </trkpt>
      <trkpt lat="44.22171" lon="3.27508">
        <ele>910</ele>
        <time>2020-01-04T19:34:44Z</time>
      </trkpt>
      <trkpt lat="44.22199" lon="3.27488">
        <ele>912</ele>
        <time>2020-01-04T19:34:51Z</time>
      </trkpt>
      <trkpt lat="44.22211" lon="3.27483">
        <ele>913</ele>
        <time>2020-01-04T19:34:54Z</time>
      </trkpt>
      <trkpt lat="44.22219" lon="3.27469">
        <ele>914</ele>
        <time>2020-01-04T19:34:57Z</time>
      </trkpt>
      <trkpt lat="44.22226" lon="3.27464">
        <ele>915</ele>
        <time>2020-01-04T19:34:59Z</time>
      </trkpt>
      <trkpt lat="44.22243" lon="3.2746">
        <ele>916</ele>
        <time>2020-01-04T19:35:03Z</time>
      </trkpt>
      <trkpt lat="44.22255" lon="3.2745">
        <ele>918</ele>
        <time>2020-01-04T19:35:07Z</time>
      </trkpt>
      <trkpt lat="44.22332" lon="3.27422">
        <ele>926</ele>
        <time>2020-01-04T19:35:25Z</time>
      </trkpt>
      <trkpt lat="44.22356" lon="3.27403">
        <ele>929</ele>
        <time>2020-01-04T19:35:32Z</time>
      </trkpt>
      <trkpt lat="44.22418" lon="3.27367">
        <ele>933</ele>
        <time>2020-01-04T19:35:47Z</time>
      </trkpt>
      <trkpt lat="44.22427" lon="3.27343">
        <ele>935</ele>
        <time>2020-01-04T19:35:52Z</time>
      </trkpt>
      <trkpt lat="44.2254" lon="3.2729">
        <ele>941</ele>
        <time>2020-01-04T19:36:20Z</time>
      </trkpt>
      <trkpt lat="44.2254" lon="3.27336">
        <ele>938</ele>
        <time>2020-01-04T19:36:27Z</time>
      </trkpt>
      <trkpt lat="44.22547" lon="3.27411">
        <ele>932</ele>
        <time>2020-01-04T19:36:40Z</time>
      </trkpt>
      <trkpt lat="44.22543" lon="3.27525">
        <ele>922</ele>
        <time>2020-01-04T19:36:59Z</time>
      </trkpt>
      <trkpt lat="44.22535" lon="3.2757">
        <ele>919</ele>
        <time>2020-01-04T19:37:07Z</time>
      </trkpt>
      <trkpt lat="44.22534" lon="3.27591">
        <ele>918</ele>
        <time>2020-01-04T19:37:10Z</time>
      </trkpt>
      <trkpt lat="44.22537" lon="3.27603">
        <ele>918</ele>
        <time>2020-01-04T19:37:12Z</time>
      </trkpt>
      <trkpt lat="44.22554" lon="3.27629">
        <ele>916</ele>
        <time>2020-01-04T19:37:18Z</time>
      </trkpt>
      <trkpt lat="44.22567" lon="3.27679">
        <ele>914</ele>
        <time>2020-01-04T19:37:27Z</time>
      </trkpt>
      <trkpt lat="44.22591" lon="3.27729">
        <ele>913</ele>
        <time>2020-01-04T19:37:37Z</time>
      </trkpt>
      <trkpt lat="44.22594" lon="3.27745">
        <ele>913</ele>
        <time>2020-01-04T19:37:40Z</time>
      </trkpt>
      <trkpt lat="44.22575" lon="3.27896">
        <ele>910</ele>
        <time>2020-01-04T19:38:06Z</time>
      </trkpt>
      <trkpt lat="44.22578" lon="3.27915">
        <ele>910</ele>
        <time>2020-01-04T19:38:09Z</time>
      </trkpt>
      <trkpt lat="44.22594" lon="3.27965">
        <ele>908</ele>
        <time>2020-01-04T19:38:18Z</time>
      </trkpt>
      <trkpt lat="44.22603" lon="3.27985">
        <ele>906</ele>
        <time>2020-01-04T19:38:22Z</time>
      </trkpt>
      <trkpt lat="44.22612" lon="3.27994">
        <ele>904</ele>
        <time>2020-01-04T19:38:25Z</time>
      </trkpt>
      <trkpt lat="44.22625" lon="3.28012">
        <ele>903</ele>
        <time>2020-01-04T19:38:29Z</time>
      </trkpt>
      <trkpt lat="44.22627" lon="3.28019">
        <ele>902</ele>
        <time>2020-01-04T19:38:30Z</time>
      </trkpt>
      <trkpt lat="44.22641" lon="3.28037">
        <ele>901</ele>
        <time>2020-01-04T19:38:35Z</time>
      </trkpt>
      <trkpt lat="44.22672" lon="3.28125">
        <ele>899</ele>
        <time>2020-01-04T19:38:51Z</time>
      </trkpt>
      <trkpt lat="44.22679" lon="3.28139">
        <ele>898</ele>
        <time>2020-01-04T19:38:54Z</time>
      </trkpt>
      <trkpt lat="44.22711" lon="3.28199">
        <ele>893</ele>
        <time>2020-01-04T19:39:06Z</time>
      </trkpt>
      <trkpt lat="44.22736" lon="3.28231">
        <ele>888</ele>
        <time>2020-01-04T19:39:14Z</time>
      </trkpt>
      <trkpt lat="44.22757" lon="3.2825">
        <ele>883</ele>
        <time>2020-01-04T19:39:20Z</time>
      </trkpt>
      <trkpt lat="44.22763" lon="3.28266">
        <ele>881</ele>
        <time>2020-01-04T19:39:23Z</time>
      </trkpt>
      <trkpt lat="44.22763" lon="3.28272">
        <ele>881</ele>
        <time>2020-01-04T19:39:24Z</time>
      </trkpt>
      <trkpt lat="44.22775" lon="3.28287">
        <ele>877</ele>
        <time>2020-01-04T19:39:28Z</time>
      </trkpt>
      <trkpt lat="44.22813" lon="3.28374">
        <ele>868</ele>
        <time>2020-01-04T19:39:45Z</time>
      </trkpt>
      <trkpt lat="44.22825" lon="3.28387">
        <ele>864</ele>
        <time>2020-01-04T19:39:49Z</time>
      </trkpt>
      <trkpt lat="44.22838" lon="3.28421">
        <ele>862</ele>
        <time>2020-01-04T19:39:55Z</time>
      </trkpt>
      <trkpt lat="44.22846" lon="3.28434">
        <ele>860</ele>
        <time>2020-01-04T19:39:58Z</time>
      </trkpt>
      <trkpt lat="44.22894" lon="3.28544">
        <ele>846</ele>
        <time>2020-01-04T19:40:19Z</time>
      </trkpt>
      <trkpt lat="44.22904" lon="3.28608">
        <ele>839</ele>
        <time>2020-01-04T19:40:30Z</time>
      </trkpt>
      <trkpt lat="44.22902" lon="3.28644">
        <ele>836</ele>
        <time>2020-01-04T19:40:36Z</time>
      </trkpt>
      <trkpt lat="44.22897" lon="3.28674">
        <ele>834</ele>
        <time>2020-01-04T19:40:42Z</time>
      </trkpt>
      <trkpt lat="44.22876" lon="3.28745">
        <ele>830</ele>
        <time>2020-01-04T19:40:55Z</time>
      </trkpt>
      <trkpt lat="44.22866" lon="3.28806">
        <ele>824</ele>
        <time>2020-01-04T19:41:05Z</time>
      </trkpt>
      <trkpt lat="44.2287" lon="3.28808">
        <ele>822</ele>
        <time>2020-01-04T19:41:06Z</time>
      </trkpt>
      <trkpt lat="44.22894" lon="3.28786">
        <ele>819</ele>
        <time>2020-01-04T19:41:13Z</time>
      </trkpt>
      <trkpt lat="44.22904" lon="3.2878">
        <ele>817</ele>
        <time>2020-01-04T19:41:15Z</time>
      </trkpt>
      <trkpt lat="44.22929" lon="3.28745">
        <ele>819</ele>
        <time>2020-01-04T19:41:23Z</time>
      </trkpt>
      <trkpt lat="44.22927" lon="3.28756">
        <ele>818</ele>
        <time>2020-01-04T19:41:25Z</time>
      </trkpt>
      <trkpt lat="44.22871" lon="3.28857">
        <ele>815</ele>
        <time>2020-01-04T19:41:47Z</time>
      </trkpt>
      <trkpt lat="44.22843" lon="3.28927">
        <ele>809</ele>
        <time>2020-01-04T19:42:00Z</time>
      </trkpt>
      <trkpt lat="44.22834" lon="3.28936">
        <ele>809</ele>
        <time>2020-01-04T19:42:03Z</time>
      </trkpt>
      <trkpt lat="44.22817" lon="3.28942">
        <ele>813</ele>
        <time>2020-01-04T19:42:07Z</time>
      </trkpt>
      <trkpt lat="44.2281" lon="3.28949">
        <ele>814</ele>
        <time>2020-01-04T19:42:09Z</time>
      </trkpt>
      <trkpt lat="44.22814" lon="3.28977">
        <ele>808</ele>
        <time>2020-01-04T19:42:14Z</time>
      </trkpt>
      <trkpt lat="44.22802" lon="3.29019">
        <ele>806</ele>
        <time>2020-01-04T19:42:21Z</time>
      </trkpt>
      <trkpt lat="44.22797" lon="3.29059">
        <ele>804</ele>
        <time>2020-01-04T19:42:28Z</time>
      </trkpt>
      <trkpt lat="44.22798" lon="3.29099">
        <ele>798</ele>
        <time>2020-01-04T19:42:35Z</time>
      </trkpt>
      <trkpt lat="44.22796" lon="3.29114">
        <ele>796</ele>
        <time>2020-01-04T19:42:37Z</time>
      </trkpt>
      <trkpt lat="44.22764" lon="3.29201">
        <ele>787</ele>
        <time>2020-01-04T19:42:54Z</time>
      </trkpt>
      <trkpt lat="44.22728" lon="3.2928">
        <ele>785</ele>
        <time>2020-01-04T19:43:09Z</time>
      </trkpt>
      <trkpt lat="44.22671" lon="3.29389">
        <ele>785</ele>
        <time>2020-01-04T19:43:32Z</time>
      </trkpt>
      <trkpt lat="44.22662" lon="3.29417">
        <ele>786</ele>
        <time>2020-01-04T19:43:37Z</time>
      </trkpt>
      <trkpt lat="44.22653" lon="3.29421">
        <ele>786</ele>
        <time>2020-01-04T19:43:39Z</time>
      </trkpt>
      <trkpt lat="44.22637" lon="3.29416">
        <ele>783</ele>
        <time>2020-01-04T19:43:43Z</time>
      </trkpt>
      <trkpt lat="44.22628" lon="3.29419">
        <ele>782</ele>
        <time>2020-01-04T19:43:45Z</time>
      </trkpt>
      <trkpt lat="44.22622" lon="3.29424">
        <ele>782</ele>
        <time>2020-01-04T19:43:47Z</time>
      </trkpt>
      <trkpt lat="44.226" lon="3.29453">
        <ele>788</ele>
        <time>2020-01-04T19:43:54Z</time>
      </trkpt>
      <trkpt lat="44.22586" lon="3.29493">
        <ele>799</ele>
        <time>2020-01-04T19:44:01Z</time>
      </trkpt>
      <trkpt lat="44.22569" lon="3.295">
        <ele>800</ele>
        <time>2020-01-04T19:44:05Z</time>
      </trkpt>
      <trkpt lat="44.22521" lon="3.2951">
        <ele>801</ele>
        <time>2020-01-04T19:44:17Z</time>
      </trkpt>
      <trkpt lat="44.22461" lon="3.29539">
        <ele>801</ele>
        <time>2020-01-04T19:44:32Z</time>
      </trkpt>
      <trkpt lat="44.22444" lon="3.29551">
        <ele>799</ele>
        <time>2020-01-04T19:44:36Z</time>
      </trkpt>
      <trkpt lat="44.22435" lon="3.29567">
        <ele>799</ele>
        <time>2020-01-04T19:44:40Z</time>
      </trkpt>
      <trkpt lat="44.22433" lon="3.29575">
        <ele>800</ele>
        <time>2020-01-04T19:44:41Z</time>
      </trkpt>
      <trkpt lat="44.22433" lon="3.29585">
        <ele>800</ele>
        <time>2020-01-04T19:44:43Z</time>
      </trkpt>
      <trkpt lat="44.22443" lon="3.29634">
        <ele>799</ele>
        <time>2020-01-04T19:44:51Z</time>
      </trkpt>
      <trkpt lat="44.2245" lon="3.29641">
        <ele>802</ele>
        <time>2020-01-04T19:44:53Z</time>
      </trkpt>
      <trkpt lat="44.22457" lon="3.29657">
        <ele>804</ele>
        <time>2020-01-04T19:44:56Z</time>
      </trkpt>
      <trkpt lat="44.22488" lon="3.29807">
        <ele>810</ele>
        <time>2020-01-04T19:45:22Z</time>
      </trkpt>
      <trkpt lat="44.22487" lon="3.2988">
        <ele>804</ele>
        <time>2020-01-04T19:45:35Z</time>
      </trkpt>
      <trkpt lat="44.22499" lon="3.2994">
        <ele>805</ele>
        <time>2020-01-04T19:45:45Z</time>
      </trkpt>
      <trkpt lat="44.22499" lon="3.29968">
        <ele>804</ele>
        <time>2020-01-04T19:45:50Z</time>
      </trkpt>
      <trkpt lat="44.2251" lon="3.30028">
        <ele>809</ele>
        <time>2020-01-04T19:46:00Z</time>
      </trkpt>
      <trkpt lat="44.22505" lon="3.30049">
        <ele>808</ele>
        <time>2020-01-04T19:46:04Z</time>
      </trkpt>
      <trkpt lat="44.22492" lon="3.30068">
        <ele>804</ele>
        <time>2020-01-04T19:46:08Z</time>
      </trkpt>
      <trkpt lat="44.22488" lon="3.30101">
        <ele>805</ele>
        <time>2020-01-04T19:46:14Z</time>
      </trkpt>
      <trkpt lat="44.22485" lon="3.30162">
        <ele>807</ele>
        <time>2020-01-04T19:46:24Z</time>
      </trkpt>
      <trkpt lat="44.22473" lon="3.30208">
        <ele>805</ele>
        <time>2020-01-04T19:46:32Z</time>
      </trkpt>
      <trkpt lat="44.22457" lon="3.30293">
        <ele>803</ele>
        <time>2020-01-04T19:46:47Z</time>
      </trkpt>
      <trkpt lat="44.22456" lon="3.30315">
        <ele>804</ele>
        <time>2020-01-04T19:46:51Z</time>
      </trkpt>
      <trkpt lat="44.22466" lon="3.3043">
        <ele>810</ele>
        <time>2020-01-04T19:47:10Z</time>
      </trkpt>
      <trkpt lat="44.22465" lon="3.30458">
        <ele>811</ele>
        <time>2020-01-04T19:47:15Z</time>
      </trkpt>
      <trkpt lat="44.22453" lon="3.30384">
        <ele>806</ele>
        <time>2020-01-04T19:47:27Z</time>
      </trkpt>
      <trkpt lat="44.22435" lon="3.30325">
        <ele>798</ele>
        <time>2020-01-04T19:47:38Z</time>
      </trkpt>
      <trkpt lat="44.22428" lon="3.30287">
        <ele>793</ele>
        <time>2020-01-04T19:47:45Z</time>
      </trkpt>
      <trkpt lat="44.22429" lon="3.30257">
        <ele>791</ele>
        <time>2020-01-04T19:47:50Z</time>
      </trkpt>
      <trkpt lat="44.2244" lon="3.30188">
        <ele>793</ele>
        <time>2020-01-04T19:48:02Z</time>
      </trkpt>
      <trkpt lat="44.22441" lon="3.30169">
        <ele>792</ele>
        <time>2020-01-04T19:48:05Z</time>
      </trkpt>
      <trkpt lat="44.22429" lon="3.30041">
        <ele>782</ele>
        <time>2020-01-04T19:48:26Z</time>
      </trkpt>
      <trkpt lat="44.22442" lon="3.30002">
        <ele>785</ele>
        <time>2020-01-04T19:48:34Z</time>
      </trkpt>
      <trkpt lat="44.22443" lon="3.2998">
        <ele>785</ele>
        <time>2020-01-04T19:48:37Z</time>
      </trkpt>
      <trkpt lat="44.22439" lon="3.29954">
        <ele>783</ele>
        <time>2020-01-04T19:48:42Z</time>
      </trkpt>
      <trkpt lat="44.22417" lon="3.29874">
        <ele>771</ele>
        <time>2020-01-04T19:48:56Z</time>
      </trkpt>
      <trkpt lat="44.22422" lon="3.29819">
        <ele>772</ele>
        <time>2020-01-04T19:49:05Z</time>
      </trkpt>
      <trkpt lat="44.22415" lon="3.29759">
        <ele>769</ele>
        <time>2020-01-04T19:49:15Z</time>
      </trkpt>
      <trkpt lat="44.22406" lon="3.29728">
        <ele>770</ele>
        <time>2020-01-04T19:49:21Z</time>
      </trkpt>
      <trkpt lat="44.22384" lon="3.29673">
        <ele>769</ele>
        <time>2020-01-04T19:49:32Z</time>
      </trkpt>
      <trkpt lat="44.22349" lon="3.29631">
        <ele>759</ele>
        <time>2020-01-04T19:49:42Z</time>
      </trkpt>
      <trkpt lat="44.2231" lon="3.29507">
        <ele>751</ele>
        <time>2020-01-04T19:50:05Z</time>
      </trkpt>
      <trkpt lat="44.22311" lon="3.29484">
        <ele>751</ele>
        <time>2020-01-04T19:50:09Z</time>
      </trkpt>
      <trkpt lat="44.22342" lon="3.29413">
        <ele>754</ele>
        <time>2020-01-04T19:50:23Z</time>
      </trkpt>
      <trkpt lat="44.22347" lon="3.29391">
        <ele>759</ele>
        <time>2020-01-04T19:50:27Z</time>
      </trkpt>
      <trkpt lat="44.22349" lon="3.29379">
        <ele>761</ele>
        <time>2020-01-04T19:50:29Z</time>
      </trkpt>
      <trkpt lat="44.22347" lon="3.29368">
        <ele>763</ele>
        <time>2020-01-04T19:50:31Z</time>
      </trkpt>
      <trkpt lat="44.22342" lon="3.29363">
        <ele>764</ele>
        <time>2020-01-04T19:50:32Z</time>
      </trkpt>
      <trkpt lat="44.22329" lon="3.29369">
        <ele>762</ele>
        <time>2020-01-04T19:50:35Z</time>
      </trkpt>
      <trkpt lat="44.22317" lon="3.29379">
        <ele>760</ele>
        <time>2020-01-04T19:50:39Z</time>
      </trkpt>
      <trkpt lat="44.223" lon="3.29401">
        <ele>753</ele>
        <time>2020-01-04T19:50:44Z</time>
      </trkpt>
      <trkpt lat="44.22282" lon="3.29417">
        <ele>747</ele>
        <time>2020-01-04T19:50:49Z</time>
      </trkpt>
      <trkpt lat="44.22267" lon="3.29424">
        <ele>745</ele>
        <time>2020-01-04T19:50:53Z</time>
      </trkpt>
      <trkpt lat="44.22237" lon="3.29419">
        <ele>742</ele>
        <time>2020-01-04T19:51:00Z</time>
      </trkpt>
      <trkpt lat="44.22188" lon="3.29398">
        <ele>745</ele>
        <time>2020-01-04T19:51:12Z</time>
      </trkpt>
      <trkpt lat="44.22154" lon="3.29399">
        <ele>741</ele>
        <time>2020-01-04T19:51:20Z</time>
      </trkpt>
      <trkpt lat="44.22122" lon="3.29403">
        <ele>736</ele>
        <time>2020-01-04T19:51:27Z</time>
      </trkpt>
      <trkpt lat="44.22126" lon="3.29407">
        <ele>735</ele>
        <time>2020-01-04T19:51:28Z</time>
      </trkpt>
      <trkpt lat="44.22135" lon="3.2941">
        <ele>735</ele>
        <time>2020-01-04T19:51:30Z</time>
      </trkpt>
      <trkpt lat="44.22165" lon="3.29412">
        <ele>736</ele>
        <time>2020-01-04T19:51:37Z</time>
      </trkpt>
      <trkpt lat="44.22193" lon="3.29422">
        <ele>737</ele>
        <time>2020-01-04T19:51:44Z</time>
      </trkpt>
      <trkpt lat="44.22239" lon="3.29447">
        <ele>741</ele>
        <time>2020-01-04T19:51:56Z</time>
      </trkpt>
      <trkpt lat="44.22247" lon="3.29454">
        <ele>741</ele>
        <time>2020-01-04T19:51:58Z</time>
      </trkpt>
      <trkpt lat="44.2225" lon="3.29463">
        <ele>741</ele>
        <time>2020-01-04T19:52:00Z</time>
      </trkpt>
      <trkpt lat="44.22222" lon="3.29457">
        <ele>740</ele>
        <time>2020-01-04T19:52:06Z</time>
      </trkpt>
      <trkpt lat="44.22194" lon="3.29458">
        <ele>739</ele>
        <time>2020-01-04T19:52:13Z</time>
      </trkpt>
      <trkpt lat="44.22161" lon="3.29452">
        <ele>737</ele>
        <time>2020-01-04T19:52:20Z</time>
      </trkpt>
      <trkpt lat="44.22102" lon="3.2946">
        <ele>734</ele>
        <time>2020-01-04T19:52:34Z</time>
      </trkpt>
      <trkpt lat="44.22072" lon="3.29458">
        <ele>734</ele>
        <time>2020-01-04T19:52:41Z</time>
      </trkpt>
      <trkpt lat="44.22021" lon="3.2943">
        <ele>731</ele>
        <time>2020-01-04T19:52:54Z</time>
      </trkpt>
      <trkpt lat="44.2201" lon="3.2942">
        <ele>728</ele>
        <time>2020-01-04T19:52:57Z</time>
      </trkpt>
      <trkpt lat="44.21975" lon="3.29357">
        <ele>726</ele>
        <time>2020-01-04T19:53:11Z</time>
      </trkpt>
      <trkpt lat="44.21962" lon="3.29338">
        <ele>724</ele>
        <time>2020-01-04T19:53:15Z</time>
      </trkpt>
      <trkpt lat="44.21915" lon="3.29284">
        <ele>720</ele>
        <time>2020-01-04T19:53:29Z</time>
      </trkpt>
      <trkpt lat="44.21902" lon="3.29277">
        <ele>718</ele>
        <time>2020-01-04T19:53:32Z</time>
      </trkpt>
      <trkpt lat="44.21884" lon="3.2928">
        <ele>717</ele>
        <time>2020-01-04T19:53:37Z</time>
      </trkpt>
      <trkpt lat="44.21869" lon="3.29287">
        <ele>717</ele>
        <time>2020-01-04T19:53:40Z</time>
      </trkpt>
      <trkpt lat="44.21853" lon="3.293">
        <ele>716</ele>
        <time>2020-01-04T19:53:45Z</time>
      </trkpt>
      <trkpt lat="44.21825" lon="3.29307">
        <ele>713</ele>
        <time>2020-01-04T19:53:51Z</time>
      </trkpt>
      <trkpt lat="44.21808" lon="3.29314">
        <ele>710</ele>
        <time>2020-01-04T19:53:55Z</time>
      </trkpt>
      <trkpt lat="44.21771" lon="3.29351">
        <ele>703</ele>
        <time>2020-01-04T19:54:06Z</time>
      </trkpt>
      <trkpt lat="44.21744" lon="3.29372">
        <ele>700</ele>
        <time>2020-01-04T19:54:13Z</time>
      </trkpt>
      <trkpt lat="44.2173" lon="3.29402">
        <ele>703</ele>
        <time>2020-01-04T19:54:19Z</time>
      </trkpt>
      <trkpt lat="44.21662" lon="3.29431">
        <ele>699</ele>
        <time>2020-01-04T19:54:36Z</time>
      </trkpt>
      <trkpt lat="44.21637" lon="3.29444">
        <ele>704</ele>
        <time>2020-01-04T19:54:42Z</time>
      </trkpt>
      <trkpt lat="44.21619" lon="3.29442">
        <ele>704</ele>
        <time>2020-01-04T19:54:46Z</time>
      </trkpt>
      <trkpt lat="44.21611" lon="3.29437">
        <ele>702</ele>
        <time>2020-01-04T19:54:48Z</time>
      </trkpt>
      <trkpt lat="44.2161" lon="3.29441">
        <ele>703</ele>
        <time>2020-01-04T19:54:49Z</time>
      </trkpt>
      <trkpt lat="44.21611" lon="3.29437">
        <ele>702</ele>
        <time>2020-01-04T19:54:50Z</time>
      </trkpt>
      <trkpt lat="44.21619" lon="3.29442">
        <ele>704</ele>
        <time>2020-01-04T19:54:52Z</time>
      </trkpt>
      <trkpt lat="44.21602" lon="3.29433">
        <ele>700</ele>
        <time>2020-01-04T19:54:56Z</time>
      </trkpt>
      <trkpt lat="44.21581" lon="3.29431">
        <ele>700</ele>
        <time>2020-01-04T19:55:01Z</time>
      </trkpt>
      <trkpt lat="44.21564" lon="3.29425">
        <ele>703</ele>
        <time>2020-01-04T19:55:05Z</time>
      </trkpt>
      <trkpt lat="44.2154" lon="3.29405">
        <ele>703</ele>
        <time>2020-01-04T19:55:12Z</time>
      </trkpt>
      <trkpt lat="44.2139" lon="3.29259">
        <ele>695</ele>
        <time>2020-01-04T19:55:54Z</time>
      </trkpt>
      <trkpt lat="44.21393" lon="3.2925">
        <ele>693</ele>
        <time>2020-01-04T19:55:56Z</time>
      </trkpt>
      <trkpt lat="44.21375" lon="3.29238">
        <ele>688</ele>
        <time>2020-01-04T19:56:01Z</time>
      </trkpt>
      <trkpt lat="44.21355" lon="3.29229">
        <ele>685</ele>
        <time>2020-01-04T19:56:06Z</time>
      </trkpt>
      <trkpt lat="44.21342" lon="3.29234">
        <ele>685</ele>
        <time>2020-01-04T19:56:09Z</time>
      </trkpt>
      <trkpt lat="44.21335" lon="3.29244">
        <ele>688</ele>
        <time>2020-01-04T19:56:11Z</time>
      </trkpt>
      <trkpt lat="44.21303" lon="3.2931">
        <ele>698</ele>
        <time>2020-01-04T19:56:24Z</time>
      </trkpt>
      <trkpt lat="44.21293" lon="3.29317">
        <ele>697</ele>
        <time>2020-01-04T19:56:27Z</time>
      </trkpt>
      <trkpt lat="44.21278" lon="3.29321">
        <ele>695</ele>
        <time>2020-01-04T19:56:31Z</time>
      </trkpt>
      <trkpt lat="44.2123" lon="3.29319">
        <ele>687</ele>
        <time>2020-01-04T19:56:42Z</time>
      </trkpt>
      <trkpt lat="44.21214" lon="3.29325">
        <ele>691</ele>
        <time>2020-01-04T19:56:46Z</time>
      </trkpt>
      <trkpt lat="44.2118" lon="3.29322">
        <ele>690</ele>
        <time>2020-01-04T19:56:54Z</time>
      </trkpt>
      <trkpt lat="44.21146" lon="3.29306">
        <ele>682</ele>
        <time>2020-01-04T19:57:02Z</time>
      </trkpt>
      <trkpt lat="44.21163" lon="3.29315">
        <ele>687</ele>
        <time>2020-01-04T19:57:06Z</time>
      </trkpt>
      <trkpt lat="44.21145" lon="3.29309">
        <ele>683</ele>
        <time>2020-01-04T19:57:11Z</time>
      </trkpt>
      <trkpt lat="44.21124" lon="3.29294">
        <ele>676</ele>
        <time>2020-01-04T19:57:16Z</time>
      </trkpt>
      <trkpt lat="44.21107" lon="3.29289">
        <ele>674</ele>
        <time>2020-01-04T19:57:20Z</time>
      </trkpt>
      <trkpt lat="44.21085" lon="3.29292">
        <ele>675</ele>
        <time>2020-01-04T19:57:25Z</time>
      </trkpt>
      <trkpt lat="44.21053" lon="3.29302">
        <ele>668</ele>
        <time>2020-01-04T19:57:33Z</time>
      </trkpt>
      <trkpt lat="44.21042" lon="3.29311">
        <ele>666</ele>
        <time>2020-01-04T19:57:36Z</time>
      </trkpt>
      <trkpt lat="44.21034" lon="3.29313">
        <ele>664</ele>
        <time>2020-01-04T19:57:38Z</time>
      </trkpt>
      <trkpt lat="44.21034" lon="3.29328">
        <ele>667</ele>
        <time>2020-01-04T19:57:40Z</time>
      </trkpt>
      <trkpt lat="44.2104" lon="3.2936">
        <ele>668</ele>
        <time>2020-01-04T19:57:46Z</time>
      </trkpt>
      <trkpt lat="44.2104" lon="3.29382">
        <ele>666</ele>
        <time>2020-01-04T19:57:50Z</time>
      </trkpt>
      <trkpt lat="44.21036" lon="3.2938">
        <ele>664</ele>
        <time>2020-01-04T19:57:51Z</time>
      </trkpt>
      <trkpt lat="44.21036" lon="3.29375">
        <ele>664</ele>
        <time>2020-01-04T19:57:51Z</time>
      </trkpt>
      <trkpt lat="44.21031" lon="3.29371">
        <ele>662</ele>
        <time>2020-01-04T19:57:53Z</time>
      </trkpt>
      <trkpt lat="44.21025" lon="3.2936">
        <ele>661</ele>
        <time>2020-01-04T19:57:55Z</time>
      </trkpt>
      <trkpt lat="44.21016" lon="3.29354">
        <ele>657</ele>
        <time>2020-01-04T19:57:57Z</time>
      </trkpt>
      <trkpt lat="44.20986" lon="3.29319">
        <ele>648</ele>
        <time>2020-01-04T19:58:07Z</time>
      </trkpt>
      <trkpt lat="44.20943" lon="3.29289">
        <ele>636</ele>
        <time>2020-01-04T19:58:18Z</time>
      </trkpt>
      <trkpt lat="44.20928" lon="3.29287">
        <ele>632</ele>
        <time>2020-01-04T19:58:21Z</time>
      </trkpt>
      <trkpt lat="44.20918" lon="3.29289">
        <ele>630</ele>
        <time>2020-01-04T19:58:24Z</time>
      </trkpt>
      <trkpt lat="44.20922" lon="3.29298">
        <ele>630</ele>
        <time>2020-01-04T19:58:25Z</time>
      </trkpt>
      <trkpt lat="44.20918" lon="3.29302">
        <ele>629</ele>
        <time>2020-01-04T19:58:27Z</time>
      </trkpt>
      <trkpt lat="44.20931" lon="3.29309">
        <ele>632</ele>
        <time>2020-01-04T19:58:30Z</time>
      </trkpt>
      <trkpt lat="44.20946" lon="3.29332">
        <ele>636</ele>
        <time>2020-01-04T19:58:35Z</time>
      </trkpt>
      <trkpt lat="44.20935" lon="3.2933">
        <ele>633</ele>
        <time>2020-01-04T19:58:38Z</time>
      </trkpt>
      <trkpt lat="44.20924" lon="3.29322">
        <ele>630</ele>
        <time>2020-01-04T19:58:40Z</time>
      </trkpt>
      <trkpt lat="44.20901" lon="3.29324">
        <ele>619</ele>
        <time>2020-01-04T19:58:46Z</time>
      </trkpt>
      <trkpt lat="44.20903" lon="3.2933">
        <ele>619</ele>
        <time>2020-01-04T19:58:47Z</time>
      </trkpt>
      <trkpt lat="44.20924" lon="3.29354">
        <ele>622</ele>
        <time>2020-01-04T19:58:53Z</time>
      </trkpt>
      <trkpt lat="44.20926" lon="3.29362">
        <ele>620</ele>
        <time>2020-01-04T19:58:55Z</time>
      </trkpt>
      <trkpt lat="44.20948" lon="3.2939">
        <ele>619</ele>
        <time>2020-01-04T19:59:02Z</time>
      </trkpt>
      <trkpt lat="44.20959" lon="3.29422">
        <ele>616</ele>
        <time>2020-01-04T19:59:08Z</time>
      </trkpt>
      <trkpt lat="44.20961" lon="3.29459">
        <ele>616</ele>
        <time>2020-01-04T19:59:14Z</time>
      </trkpt>
      <trkpt lat="44.20952" lon="3.2947">
        <ele>611</ele>
        <time>2020-01-04T19:59:17Z</time>
      </trkpt>
      <trkpt lat="44.2095" lon="3.29459">
        <ele>610</ele>
        <time>2020-01-04T19:59:19Z</time>
      </trkpt>
      <trkpt lat="44.20943" lon="3.2947">
        <ele>606</ele>
        <time>2020-01-04T19:59:21Z</time>
      </trkpt>
      <trkpt lat="44.20941" lon="3.29463">
        <ele>605</ele>
        <time>2020-01-04T19:59:22Z</time>
      </trkpt>
      <trkpt lat="44.20943" lon="3.2945">
        <ele>607</ele>
        <time>2020-01-04T19:59:24Z</time>
      </trkpt>
      <trkpt lat="44.20939" lon="3.29444">
        <ele>605</ele>
        <time>2020-01-04T19:59:26Z</time>
      </trkpt>
      <trkpt lat="44.20933" lon="3.29459">
        <ele>601</ele>
        <time>2020-01-04T19:59:29Z</time>
      </trkpt>
      <trkpt lat="44.20928" lon="3.29459">
        <ele>599</ele>
        <time>2020-01-04T19:59:30Z</time>
      </trkpt>
      <trkpt lat="44.20926" lon="3.29444">
        <ele>598</ele>
        <time>2020-01-04T19:59:32Z</time>
      </trkpt>
      <trkpt lat="44.20922" lon="3.29446">
        <ele>596</ele>
        <time>2020-01-04T19:59:33Z</time>
      </trkpt>
      <trkpt lat="44.2092" lon="3.29442">
        <ele>595</ele>
        <time>2020-01-04T19:59:34Z</time>
      </trkpt>
      <trkpt lat="44.20911" lon="3.29459">
        <ele>590</ele>
        <time>2020-01-04T19:59:38Z</time>
      </trkpt>
      <trkpt lat="44.20907" lon="3.29444">
        <ele>588</ele>
        <time>2020-01-04T19:59:40Z</time>
      </trkpt>
      <trkpt lat="44.20903" lon="3.29442">
        <ele>586</ele>
        <time>2020-01-04T19:59:41Z</time>
      </trkpt>
      <trkpt lat="44.20898" lon="3.29463">
        <ele>582</ele>
        <time>2020-01-04T19:59:45Z</time>
      </trkpt>
      <trkpt lat="44.20892" lon="3.29472">
        <ele>579</ele>
        <time>2020-01-04T19:59:47Z</time>
      </trkpt>
      <trkpt lat="44.20896" lon="3.29453">
        <ele>582</ele>
        <time>2020-01-04T19:59:51Z</time>
      </trkpt>
      <trkpt lat="44.2089" lon="3.29444">
        <ele>579</ele>
        <time>2020-01-04T19:59:53Z</time>
      </trkpt>
      <trkpt lat="44.20881" lon="3.29442">
        <ele>574</ele>
        <time>2020-01-04T19:59:55Z</time>
      </trkpt>
      <trkpt lat="44.20883" lon="3.29448">
        <ele>575</ele>
        <time>2020-01-04T19:59:56Z</time>
      </trkpt>
      <trkpt lat="44.20881" lon="3.29453">
        <ele>574</ele>
        <time>2020-01-04T19:59:57Z</time>
      </trkpt>
      <trkpt lat="44.20877" lon="3.29448">
        <ele>572</ele>
        <time>2020-01-04T19:59:58Z</time>
      </trkpt>
      <trkpt lat="44.20873" lon="3.29453">
        <ele>569</ele>
        <time>2020-01-04T19:59:59Z</time>
      </trkpt>
      <trkpt lat="44.20875" lon="3.29463">
        <ele>570</ele>
        <time>2020-01-04T20:00:01Z</time>
      </trkpt>
      <trkpt lat="44.20871" lon="3.2947">
        <ele>567</ele>
        <time>2020-01-04T20:00:03Z</time>
      </trkpt>
      <trkpt lat="44.20864" lon="3.29468">
        <ele>563</ele>
        <time>2020-01-04T20:00:04Z</time>
      </trkpt>
      <trkpt lat="44.20858" lon="3.2948">
        <ele>560</ele>
        <time>2020-01-04T20:00:07Z</time>
      </trkpt>
      <trkpt lat="44.20851" lon="3.29483">
        <ele>556</ele>
        <time>2020-01-04T20:00:08Z</time>
      </trkpt>
      <trkpt lat="44.20849" lon="3.29476">
        <ele>555</ele>
        <time>2020-01-04T20:00:10Z</time>
      </trkpt>
      <trkpt lat="44.20845" lon="3.29474">
        <ele>553</ele>
        <time>2020-01-04T20:00:11Z</time>
      </trkpt>
      <trkpt lat="44.20847" lon="3.29457">
        <ele>555</ele>
        <time>2020-01-04T20:00:14Z</time>
      </trkpt>
      <trkpt lat="44.20841" lon="3.29455">
        <ele>551</ele>
        <time>2020-01-04T20:00:15Z</time>
      </trkpt>
      <trkpt lat="44.20838" lon="3.29461">
        <ele>549</ele>
        <time>2020-01-04T20:00:16Z</time>
      </trkpt>
      <trkpt lat="44.2083" lon="3.29461">
        <ele>545</ele>
        <time>2020-01-04T20:00:18Z</time>
      </trkpt>
      <trkpt lat="44.20825" lon="3.29465">
        <ele>543</ele>
        <time>2020-01-04T20:00:19Z</time>
      </trkpt>
      <trkpt lat="44.20817" lon="3.29461">
        <ele>539</ele>
        <time>2020-01-04T20:00:21Z</time>
      </trkpt>
      <trkpt lat="44.20819" lon="3.29465">
        <ele>539</ele>
        <time>2020-01-04T20:00:22Z</time>
      </trkpt>
      <trkpt lat="44.20817" lon="3.29476">
        <ele>538</ele>
        <time>2020-01-04T20:00:24Z</time>
      </trkpt>
      <trkpt lat="44.2081" lon="3.29478">
        <ele>535</ele>
        <time>2020-01-04T20:00:26Z</time>
      </trkpt>
      <trkpt lat="44.20806" lon="3.29485">
        <ele>533</ele>
        <time>2020-01-04T20:00:27Z</time>
      </trkpt>
      <trkpt lat="44.20804" lon="3.29476">
        <ele>532</ele>
        <time>2020-01-04T20:00:29Z</time>
      </trkpt>
      <trkpt lat="44.208" lon="3.29485">
        <ele>530</ele>
        <time>2020-01-04T20:00:31Z</time>
      </trkpt>
      <trkpt lat="44.20789" lon="3.29491">
        <ele>525</ele>
        <time>2020-01-04T20:00:33Z</time>
      </trkpt>
      <trkpt lat="44.20787" lon="3.29487">
        <ele>524</ele>
        <time>2020-01-04T20:00:34Z</time>
      </trkpt>
      <trkpt lat="44.20793" lon="3.29476">
        <ele>527</ele>
        <time>2020-01-04T20:00:37Z</time>
      </trkpt>
      <trkpt lat="44.20785" lon="3.29468">
        <ele>522</ele>
        <time>2020-01-04T20:00:39Z</time>
      </trkpt>
      <trkpt lat="44.20776" lon="3.29463">
        <ele>518</ele>
        <time>2020-01-04T20:00:41Z</time>
      </trkpt>
      <trkpt lat="44.20761" lon="3.29465">
        <ele>510</ele>
        <time>2020-01-04T20:00:45Z</time>
      </trkpt>
    </trkseg>
  </trk>
</gpx>